<?xml version="1.0" encoding="UTF-8" standalone="no" ?>
<gpx xmlns="http://www.topografix.com/GPX/1/1" xmlns:xsi="http://www.w3.org/2001/XMLSchema-instance" xsi:schemaLocation="http://www.topografix.com/GPX/1/1 http://www.topografix.com/GPX/1/1/gpx.xsd" version="1.1" creator="VisuGPX - https://www.visugpx.com">
  <metadata>
    <name>Chêne de la tête d\'Alouette</name>
    <desc><![CDATA[Une boucle passant par la piste de galop (côté sableux) jusqu\'à ce magnifique chêne !
Une bonne allure pour Dipti en dextre !]]></desc>
  </metadata>
  <trk>
    <name><![CDATA[Saint-Léger-en-Yvelines Autre]]></name>
    <trkseg>
      <trkpt lat="48.70578" lon="1.75812">
        <ele>171.8</ele>
        <time>2015-06-14T08:41:53.000Z</time>
      </trkpt>
      <trkpt lat="48.70569" lon="1.75823">
        <ele>171.4</ele>
        <time>2015-06-14T08:42:01.000Z</time>
      </trkpt>
      <trkpt lat="48.70565" lon="1.75832">
        <ele>171</ele>
        <time>2015-06-14T08:42:07.000Z</time>
      </trkpt>
      <trkpt lat="48.70564" lon="1.75836">
        <ele>171</ele>
        <time>2015-06-14T08:42:12.000Z</time>
      </trkpt>
      <trkpt lat="48.7056" lon="1.75846">
        <ele>171</ele>
        <time>2015-06-14T08:42:22.000Z</time>
      </trkpt>
      <trkpt lat="48.70556" lon="1.75854">
        <ele>171</ele>
        <time>2015-06-14T08:42:26.000Z</time>
      </trkpt>
      <trkpt lat="48.70552" lon="1.75862">
        <ele>171</ele>
        <time>2015-06-14T08:42:32.000Z</time>
      </trkpt>
      <trkpt lat="48.70549" lon="1.75865">
        <ele>171</ele>
        <time>2015-06-14T08:42:35.000Z</time>
      </trkpt>
      <trkpt lat="48.70544" lon="1.75877">
        <ele>171</ele>
        <time>2015-06-14T08:42:42.000Z</time>
      </trkpt>
      <trkpt lat="48.70543" lon="1.75878">
        <ele>171</ele>
        <time>2015-06-14T08:42:43.000Z</time>
      </trkpt>
      <trkpt lat="48.70536" lon="1.75891">
        <ele>170.9</ele>
        <time>2015-06-14T08:42:51.000Z</time>
      </trkpt>
      <trkpt lat="48.70531" lon="1.75898">
        <ele>170.7</ele>
        <time>2015-06-14T08:42:56.000Z</time>
      </trkpt>
      <trkpt lat="48.70527" lon="1.75904">
        <ele>170.5</ele>
        <time>2015-06-14T08:43:01.000Z</time>
      </trkpt>
      <trkpt lat="48.70522" lon="1.75911">
        <ele>170.4</ele>
        <time>2015-06-14T08:43:07.000Z</time>
      </trkpt>
      <trkpt lat="48.70517" lon="1.75923">
        <ele>170.3</ele>
        <time>2015-06-14T08:43:16.000Z</time>
      </trkpt>
      <trkpt lat="48.70512" lon="1.75932">
        <ele>170.3</ele>
        <time>2015-06-14T08:43:21.000Z</time>
      </trkpt>
      <trkpt lat="48.70508" lon="1.75937">
        <ele>170.2</ele>
        <time>2015-06-14T08:43:25.000Z</time>
      </trkpt>
      <trkpt lat="48.70509" lon="1.7594">
        <ele>170.1</ele>
        <time>2015-06-14T08:43:27.000Z</time>
      </trkpt>
      <trkpt lat="48.70509" lon="1.75941">
        <ele>170.1</ele>
        <time>2015-06-14T08:43:29.000Z</time>
      </trkpt>
      <trkpt lat="48.70505" lon="1.7595">
        <ele>170</ele>
        <time>2015-06-14T08:43:36.000Z</time>
      </trkpt>
      <trkpt lat="48.70501" lon="1.75956">
        <ele>170</ele>
        <time>2015-06-14T08:43:41.000Z</time>
      </trkpt>
      <trkpt lat="48.70499" lon="1.7596">
        <ele>170</ele>
        <time>2015-06-14T08:43:45.000Z</time>
      </trkpt>
      <trkpt lat="48.70495" lon="1.75971">
        <ele>170</ele>
        <time>2015-06-14T08:43:51.000Z</time>
      </trkpt>
      <trkpt lat="48.70494" lon="1.75975">
        <ele>169.9</ele>
        <time>2015-06-14T08:43:54.000Z</time>
      </trkpt>
      <trkpt lat="48.7049" lon="1.75986">
        <ele>169.7</ele>
        <time>2015-06-14T08:44:02.000Z</time>
      </trkpt>
      <trkpt lat="48.70489" lon="1.75987">
        <ele>169.7</ele>
        <time>2015-06-14T08:44:03.000Z</time>
      </trkpt>
      <trkpt lat="48.70486" lon="1.75996">
        <ele>169.6</ele>
        <time>2015-06-14T08:44:09.000Z</time>
      </trkpt>
      <trkpt lat="48.70485" lon="1.7601">
        <ele>169.3</ele>
        <time>2015-06-14T08:44:17.000Z</time>
      </trkpt>
      <trkpt lat="48.70482" lon="1.76021">
        <ele>169.2</ele>
        <time>2015-06-14T08:44:23.000Z</time>
      </trkpt>
      <trkpt lat="48.70481" lon="1.76028">
        <ele>169</ele>
        <time>2015-06-14T08:44:27.000Z</time>
      </trkpt>
      <trkpt lat="48.70477" lon="1.76041">
        <ele>169</ele>
        <time>2015-06-14T08:44:35.000Z</time>
      </trkpt>
      <trkpt lat="48.70474" lon="1.76051">
        <ele>169</ele>
        <time>2015-06-14T08:44:42.000Z</time>
      </trkpt>
      <trkpt lat="48.70473" lon="1.76056">
        <ele>169</ele>
        <time>2015-06-14T08:44:44.000Z</time>
      </trkpt>
      <trkpt lat="48.70473" lon="1.76058">
        <ele>168.9</ele>
        <time>2015-06-14T08:44:46.000Z</time>
      </trkpt>
      <trkpt lat="48.70469" lon="1.7607">
        <ele>168.5</ele>
        <time>2015-06-14T08:44:54.000Z</time>
      </trkpt>
      <trkpt lat="48.70465" lon="1.76085">
        <ele>168</ele>
        <time>2015-06-14T08:45:02.000Z</time>
      </trkpt>
      <trkpt lat="48.70461" lon="1.76097">
        <ele>168</ele>
        <time>2015-06-14T08:45:08.000Z</time>
      </trkpt>
      <trkpt lat="48.70457" lon="1.76109">
        <ele>168</ele>
        <time>2015-06-14T08:45:15.000Z</time>
      </trkpt>
      <trkpt lat="48.70454" lon="1.7612">
        <ele>167.8</ele>
        <time>2015-06-14T08:45:20.000Z</time>
      </trkpt>
      <trkpt lat="48.70451" lon="1.76131">
        <ele>167.5</ele>
        <time>2015-06-14T08:45:27.000Z</time>
      </trkpt>
      <trkpt lat="48.70451" lon="1.76133">
        <ele>167.4</ele>
        <time>2015-06-14T08:45:28.000Z</time>
      </trkpt>
      <trkpt lat="48.70449" lon="1.76143">
        <ele>167.2</ele>
        <time>2015-06-14T08:45:35.000Z</time>
      </trkpt>
      <trkpt lat="48.70449" lon="1.76144">
        <ele>167.2</ele>
        <time>2015-06-14T08:45:36.000Z</time>
      </trkpt>
      <trkpt lat="48.70449" lon="1.76157">
        <ele>167.2</ele>
        <time>2015-06-14T08:45:43.000Z</time>
      </trkpt>
      <trkpt lat="48.70453" lon="1.76168">
        <ele>167.3</ele>
        <time>2015-06-14T08:45:50.000Z</time>
      </trkpt>
      <trkpt lat="48.70451" lon="1.76179">
        <ele>167.3</ele>
        <time>2015-06-14T08:45:56.000Z</time>
      </trkpt>
      <trkpt lat="48.7045" lon="1.76192">
        <ele>167.2</ele>
        <time>2015-06-14T08:46:02.000Z</time>
      </trkpt>
      <trkpt lat="48.7045" lon="1.762">
        <ele>167.2</ele>
        <time>2015-06-14T08:46:07.000Z</time>
      </trkpt>
      <trkpt lat="48.7045" lon="1.76205">
        <ele>167.3</ele>
        <time>2015-06-14T08:46:10.000Z</time>
      </trkpt>
      <trkpt lat="48.70448" lon="1.76214">
        <ele>167.2</ele>
        <time>2015-06-14T08:46:16.000Z</time>
      </trkpt>
      <trkpt lat="48.70449" lon="1.76224">
        <ele>167.4</ele>
        <time>2015-06-14T08:46:21.000Z</time>
      </trkpt>
      <trkpt lat="48.70449" lon="1.76238">
        <ele>167.9</ele>
        <time>2015-06-14T08:46:28.000Z</time>
      </trkpt>
      <trkpt lat="48.70447" lon="1.76248">
        <ele>168.1</ele>
        <time>2015-06-14T08:46:33.000Z</time>
      </trkpt>
      <trkpt lat="48.70445" lon="1.76262">
        <ele>168.4</ele>
        <time>2015-06-14T08:46:40.000Z</time>
      </trkpt>
      <trkpt lat="48.70444" lon="1.76273">
        <ele>168.8</ele>
        <time>2015-06-14T08:46:47.000Z</time>
      </trkpt>
      <trkpt lat="48.70443" lon="1.76285">
        <ele>168.6</ele>
        <time>2015-06-14T08:46:53.000Z</time>
      </trkpt>
      <trkpt lat="48.70443" lon="1.76298">
        <ele>168.2</ele>
        <time>2015-06-14T08:47:00.000Z</time>
      </trkpt>
      <trkpt lat="48.70441" lon="1.76307">
        <ele>167.9</ele>
        <time>2015-06-14T08:47:05.000Z</time>
      </trkpt>
      <trkpt lat="48.70442" lon="1.7632">
        <ele>167.9</ele>
        <time>2015-06-14T08:47:12.000Z</time>
      </trkpt>
      <trkpt lat="48.70444" lon="1.76337">
        <ele>168</ele>
        <time>2015-06-14T08:47:21.000Z</time>
      </trkpt>
      <trkpt lat="48.70447" lon="1.76349">
        <ele>168.1</ele>
        <time>2015-06-14T08:47:27.000Z</time>
      </trkpt>
      <trkpt lat="48.70447" lon="1.7635">
        <ele>168.1</ele>
        <time>2015-06-14T08:47:28.000Z</time>
      </trkpt>
      <trkpt lat="48.70448" lon="1.76358">
        <ele>168.1</ele>
        <time>2015-06-14T08:47:34.000Z</time>
      </trkpt>
      <trkpt lat="48.70449" lon="1.7636">
        <ele>168.2</ele>
        <time>2015-06-14T08:47:35.000Z</time>
      </trkpt>
      <trkpt lat="48.70449" lon="1.76364">
        <ele>168.2</ele>
        <time>2015-06-14T08:47:40.000Z</time>
      </trkpt>
      <trkpt lat="48.70459" lon="1.76406">
        <ele>169.2</ele>
        <time>2015-06-14T08:49:01.000Z</time>
      </trkpt>
      <trkpt lat="48.70456" lon="1.76421">
        <ele>169.5</ele>
        <time>2015-06-14T08:49:08.000Z</time>
      </trkpt>
      <trkpt lat="48.70453" lon="1.76426">
        <ele>169.6</ele>
        <time>2015-06-14T08:49:12.000Z</time>
      </trkpt>
      <trkpt lat="48.70449" lon="1.7644">
        <ele>169.9</ele>
        <time>2015-06-14T08:49:19.000Z</time>
      </trkpt>
      <trkpt lat="48.70448" lon="1.76449">
        <ele>170.2</ele>
        <time>2015-06-14T08:49:25.000Z</time>
      </trkpt>
      <trkpt lat="48.70446" lon="1.76455">
        <ele>170.4</ele>
        <time>2015-06-14T08:49:29.000Z</time>
      </trkpt>
      <trkpt lat="48.70444" lon="1.76457">
        <ele>170.4</ele>
        <time>2015-06-14T08:49:32.000Z</time>
      </trkpt>
      <trkpt lat="48.70438" lon="1.76468">
        <ele>170.9</ele>
        <time>2015-06-14T08:49:39.000Z</time>
      </trkpt>
      <trkpt lat="48.70438" lon="1.76473">
        <ele>171</ele>
        <time>2015-06-14T08:49:42.000Z</time>
      </trkpt>
      <trkpt lat="48.70438" lon="1.76485">
        <ele>171.5</ele>
        <time>2015-06-14T08:49:48.000Z</time>
      </trkpt>
      <trkpt lat="48.70435" lon="1.76495">
        <ele>171.8</ele>
        <time>2015-06-14T08:49:54.000Z</time>
      </trkpt>
      <trkpt lat="48.70433" lon="1.76506">
        <ele>172</ele>
        <time>2015-06-14T08:50:00.000Z</time>
      </trkpt>
      <trkpt lat="48.7043" lon="1.76512">
        <ele>172</ele>
        <time>2015-06-14T08:50:06.000Z</time>
      </trkpt>
      <trkpt lat="48.70425" lon="1.76524">
        <ele>172</ele>
        <time>2015-06-14T08:50:13.000Z</time>
      </trkpt>
      <trkpt lat="48.70426" lon="1.76538">
        <ele>172.4</ele>
        <time>2015-06-14T08:50:19.000Z</time>
      </trkpt>
      <trkpt lat="48.70427" lon="1.76541">
        <ele>172.5</ele>
        <time>2015-06-14T08:50:20.000Z</time>
      </trkpt>
      <trkpt lat="48.70428" lon="1.76551">
        <ele>172.8</ele>
        <time>2015-06-14T08:50:24.000Z</time>
      </trkpt>
      <trkpt lat="48.70426" lon="1.76568">
        <ele>173.1</ele>
        <time>2015-06-14T08:50:32.000Z</time>
      </trkpt>
      <trkpt lat="48.70421" lon="1.76577">
        <ele>173.1</ele>
        <time>2015-06-14T08:50:39.000Z</time>
      </trkpt>
      <trkpt lat="48.70419" lon="1.7658">
        <ele>173.1</ele>
        <time>2015-06-14T08:50:41.000Z</time>
      </trkpt>
      <trkpt lat="48.70413" lon="1.76584">
        <ele>173</ele>
        <time>2015-06-14T08:50:47.000Z</time>
      </trkpt>
      <trkpt lat="48.70409" lon="1.76588">
        <ele>173.1</ele>
        <time>2015-06-14T08:50:53.000Z</time>
      </trkpt>
      <trkpt lat="48.70403" lon="1.7659">
        <ele>173.1</ele>
        <time>2015-06-14T08:50:57.000Z</time>
      </trkpt>
      <trkpt lat="48.70396" lon="1.76597">
        <ele>173.1</ele>
        <time>2015-06-14T08:51:04.000Z</time>
      </trkpt>
      <trkpt lat="48.70388" lon="1.76603">
        <ele>173</ele>
        <time>2015-06-14T08:51:11.000Z</time>
      </trkpt>
      <trkpt lat="48.70381" lon="1.76605">
        <ele>172.7</ele>
        <time>2015-06-14T08:51:17.000Z</time>
      </trkpt>
      <trkpt lat="48.70374" lon="1.76606">
        <ele>172.4</ele>
        <time>2015-06-14T08:51:23.000Z</time>
      </trkpt>
      <trkpt lat="48.70368" lon="1.76608">
        <ele>172.3</ele>
        <time>2015-06-14T08:51:27.000Z</time>
      </trkpt>
      <trkpt lat="48.70366" lon="1.7661">
        <ele>172.2</ele>
        <time>2015-06-14T08:51:29.000Z</time>
      </trkpt>
      <trkpt lat="48.7036" lon="1.76611">
        <ele>172</ele>
        <time>2015-06-14T08:51:33.000Z</time>
      </trkpt>
      <trkpt lat="48.70355" lon="1.76616">
        <ele>171.9</ele>
        <time>2015-06-14T08:51:39.000Z</time>
      </trkpt>
      <trkpt lat="48.70354" lon="1.76618">
        <ele>171.9</ele>
        <time>2015-06-14T08:51:40.000Z</time>
      </trkpt>
      <trkpt lat="48.70344" lon="1.76624">
        <ele>171.6</ele>
        <time>2015-06-14T08:51:47.000Z</time>
      </trkpt>
      <trkpt lat="48.7034" lon="1.76628">
        <ele>171.4</ele>
        <time>2015-06-14T08:51:51.000Z</time>
      </trkpt>
      <trkpt lat="48.70337" lon="1.76632">
        <ele>171.3</ele>
        <time>2015-06-14T08:51:57.000Z</time>
      </trkpt>
      <trkpt lat="48.70336" lon="1.7663">
        <ele>171.2</ele>
        <time>2015-06-14T08:52:02.000Z</time>
      </trkpt>
      <trkpt lat="48.70336" lon="1.76622">
        <ele>171.2</ele>
        <time>2015-06-14T08:52:09.000Z</time>
      </trkpt>
      <trkpt lat="48.70338" lon="1.76622">
        <ele>171.3</ele>
        <time>2015-06-14T08:52:20.000Z</time>
      </trkpt>
      <trkpt lat="48.70339" lon="1.76623">
        <ele>171.3</ele>
        <time>2015-06-14T08:52:24.000Z</time>
      </trkpt>
      <trkpt lat="48.70336" lon="1.76633">
        <ele>171.1</ele>
        <time>2015-06-14T08:53:48.000Z</time>
      </trkpt>
      <trkpt lat="48.70333" lon="1.76636">
        <ele>171</ele>
        <time>2015-06-14T08:53:49.000Z</time>
      </trkpt>
      <trkpt lat="48.70326" lon="1.76649">
        <ele>171.1</ele>
        <time>2015-06-14T08:53:57.000Z</time>
      </trkpt>
      <trkpt lat="48.70325" lon="1.76652">
        <ele>171.2</ele>
        <time>2015-06-14T08:53:59.000Z</time>
      </trkpt>
      <trkpt lat="48.70322" lon="1.76661">
        <ele>171.4</ele>
        <time>2015-06-14T08:54:04.000Z</time>
      </trkpt>
      <trkpt lat="48.70322" lon="1.76667">
        <ele>171.6</ele>
        <time>2015-06-14T08:54:07.000Z</time>
      </trkpt>
      <trkpt lat="48.70322" lon="1.76686">
        <ele>171.9</ele>
        <time>2015-06-14T08:54:15.000Z</time>
      </trkpt>
      <trkpt lat="48.70322" lon="1.76687">
        <ele>171.9</ele>
        <time>2015-06-14T08:54:16.000Z</time>
      </trkpt>
      <trkpt lat="48.70323" lon="1.76701">
        <ele>172.2</ele>
        <time>2015-06-14T08:54:23.000Z</time>
      </trkpt>
      <trkpt lat="48.70325" lon="1.76719">
        <ele>172.9</ele>
        <time>2015-06-14T08:54:32.000Z</time>
      </trkpt>
      <trkpt lat="48.70326" lon="1.76737">
        <ele>173.5</ele>
        <time>2015-06-14T08:54:42.000Z</time>
      </trkpt>
      <trkpt lat="48.70326" lon="1.76756">
        <ele>174</ele>
        <time>2015-06-14T08:54:51.000Z</time>
      </trkpt>
      <trkpt lat="48.70327" lon="1.76772">
        <ele>174</ele>
        <time>2015-06-14T08:54:59.000Z</time>
      </trkpt>
      <trkpt lat="48.70326" lon="1.76788">
        <ele>174.4</ele>
        <time>2015-06-14T08:55:07.000Z</time>
      </trkpt>
      <trkpt lat="48.70326" lon="1.76806">
        <ele>175</ele>
        <time>2015-06-14T08:55:16.000Z</time>
      </trkpt>
      <trkpt lat="48.70326" lon="1.76813">
        <ele>175</ele>
        <time>2015-06-14T08:55:19.000Z</time>
      </trkpt>
      <trkpt lat="48.70327" lon="1.76822">
        <ele>175</ele>
        <time>2015-06-14T08:55:23.000Z</time>
      </trkpt>
      <trkpt lat="48.70328" lon="1.76844">
        <ele>175.4</ele>
        <time>2015-06-14T08:55:33.000Z</time>
      </trkpt>
      <trkpt lat="48.70328" lon="1.76865">
        <ele>176</ele>
        <time>2015-06-14T08:55:43.000Z</time>
      </trkpt>
      <trkpt lat="48.70328" lon="1.76886">
        <ele>176</ele>
        <time>2015-06-14T08:55:52.000Z</time>
      </trkpt>
      <trkpt lat="48.70328" lon="1.76893">
        <ele>176</ele>
        <time>2015-06-14T08:55:56.000Z</time>
      </trkpt>
      <trkpt lat="48.70328" lon="1.76895">
        <ele>176</ele>
        <time>2015-06-14T08:55:59.000Z</time>
      </trkpt>
      <trkpt lat="48.70332" lon="1.76905">
        <ele>176</ele>
        <time>2015-06-14T08:56:11.000Z</time>
      </trkpt>
      <trkpt lat="48.70333" lon="1.76926">
        <ele>176.4</ele>
        <time>2015-06-14T08:56:19.000Z</time>
      </trkpt>
      <trkpt lat="48.70334" lon="1.76947">
        <ele>177</ele>
        <time>2015-06-14T08:56:28.000Z</time>
      </trkpt>
      <trkpt lat="48.70334" lon="1.7695">
        <ele>177</ele>
        <time>2015-06-14T08:56:31.000Z</time>
      </trkpt>
      <trkpt lat="48.70335" lon="1.76959">
        <ele>177</ele>
        <time>2015-06-14T08:56:35.000Z</time>
      </trkpt>
      <trkpt lat="48.70336" lon="1.76961">
        <ele>177</ele>
        <time>2015-06-14T08:56:36.000Z</time>
      </trkpt>
      <trkpt lat="48.70339" lon="1.76984">
        <ele>176.9</ele>
        <time>2015-06-14T08:56:45.000Z</time>
      </trkpt>
      <trkpt lat="48.70341" lon="1.77002">
        <ele>176.7</ele>
        <time>2015-06-14T08:56:51.000Z</time>
      </trkpt>
      <trkpt lat="48.70343" lon="1.77016">
        <ele>176.3</ele>
        <time>2015-06-14T08:56:57.000Z</time>
      </trkpt>
      <trkpt lat="48.70345" lon="1.77029">
        <ele>176</ele>
        <time>2015-06-14T08:57:03.000Z</time>
      </trkpt>
      <trkpt lat="48.70345" lon="1.77031">
        <ele>176.1</ele>
        <time>2015-06-14T08:57:04.000Z</time>
      </trkpt>
      <trkpt lat="48.70345" lon="1.77043">
        <ele>176.3</ele>
        <time>2015-06-14T08:57:09.000Z</time>
      </trkpt>
      <trkpt lat="48.70345" lon="1.77054">
        <ele>176.5</ele>
        <time>2015-06-14T08:57:14.000Z</time>
      </trkpt>
      <trkpt lat="48.70345" lon="1.77073">
        <ele>176.8</ele>
        <time>2015-06-14T08:57:23.000Z</time>
      </trkpt>
      <trkpt lat="48.70345" lon="1.77075">
        <ele>176.9</ele>
        <time>2015-06-14T08:57:24.000Z</time>
      </trkpt>
      <trkpt lat="48.70346" lon="1.77088">
        <ele>177</ele>
        <time>2015-06-14T08:57:30.000Z</time>
      </trkpt>
      <trkpt lat="48.70348" lon="1.77098">
        <ele>177</ele>
        <time>2015-06-14T08:57:35.000Z</time>
      </trkpt>
      <trkpt lat="48.70349" lon="1.77111">
        <ele>177</ele>
        <time>2015-06-14T08:57:42.000Z</time>
      </trkpt>
      <trkpt lat="48.70351" lon="1.7713">
        <ele>177</ele>
        <time>2015-06-14T08:57:52.000Z</time>
      </trkpt>
      <trkpt lat="48.70355" lon="1.77149">
        <ele>177</ele>
        <time>2015-06-14T08:58:01.000Z</time>
      </trkpt>
      <trkpt lat="48.70357" lon="1.77167">
        <ele>177</ele>
        <time>2015-06-14T08:58:09.000Z</time>
      </trkpt>
      <trkpt lat="48.70357" lon="1.77181">
        <ele>177</ele>
        <time>2015-06-14T08:58:16.000Z</time>
      </trkpt>
      <trkpt lat="48.70359" lon="1.77201">
        <ele>177</ele>
        <time>2015-06-14T08:58:27.000Z</time>
      </trkpt>
      <trkpt lat="48.7036" lon="1.77217">
        <ele>177</ele>
        <time>2015-06-14T08:58:35.000Z</time>
      </trkpt>
      <trkpt lat="48.70361" lon="1.77228">
        <ele>177</ele>
        <time>2015-06-14T08:58:41.000Z</time>
      </trkpt>
      <trkpt lat="48.70363" lon="1.77241">
        <ele>177</ele>
        <time>2015-06-14T08:58:48.000Z</time>
      </trkpt>
      <trkpt lat="48.70364" lon="1.7725">
        <ele>177</ele>
        <time>2015-06-14T08:58:53.000Z</time>
      </trkpt>
      <trkpt lat="48.70365" lon="1.77262">
        <ele>177</ele>
        <time>2015-06-14T08:58:59.000Z</time>
      </trkpt>
      <trkpt lat="48.70366" lon="1.77266">
        <ele>177</ele>
        <time>2015-06-14T08:59:01.000Z</time>
      </trkpt>
      <trkpt lat="48.70365" lon="1.77273">
        <ele>177</ele>
        <time>2015-06-14T08:59:05.000Z</time>
      </trkpt>
      <trkpt lat="48.70364" lon="1.77279">
        <ele>177</ele>
        <time>2015-06-14T08:59:10.000Z</time>
      </trkpt>
      <trkpt lat="48.70361" lon="1.7729">
        <ele>177</ele>
        <time>2015-06-14T08:59:18.000Z</time>
      </trkpt>
      <trkpt lat="48.70361" lon="1.77301">
        <ele>177</ele>
        <time>2015-06-14T08:59:24.000Z</time>
      </trkpt>
      <trkpt lat="48.70361" lon="1.7731">
        <ele>177</ele>
        <time>2015-06-14T08:59:29.000Z</time>
      </trkpt>
      <trkpt lat="48.70362" lon="1.7732">
        <ele>177</ele>
        <time>2015-06-14T08:59:35.000Z</time>
      </trkpt>
      <trkpt lat="48.70362" lon="1.77332">
        <ele>177</ele>
        <time>2015-06-14T08:59:41.000Z</time>
      </trkpt>
      <trkpt lat="48.70363" lon="1.77336">
        <ele>177</ele>
        <time>2015-06-14T08:59:43.000Z</time>
      </trkpt>
      <trkpt lat="48.70363" lon="1.77344">
        <ele>177</ele>
        <time>2015-06-14T08:59:47.000Z</time>
      </trkpt>
      <trkpt lat="48.7036" lon="1.77354">
        <ele>177</ele>
        <time>2015-06-14T08:59:53.000Z</time>
      </trkpt>
      <trkpt lat="48.70353" lon="1.77364">
        <ele>177.3</ele>
        <time>2015-06-14T09:00:01.000Z</time>
      </trkpt>
      <trkpt lat="48.70346" lon="1.77373">
        <ele>177.5</ele>
        <time>2015-06-14T09:00:06.000Z</time>
      </trkpt>
      <trkpt lat="48.70344" lon="1.77381">
        <ele>177.6</ele>
        <time>2015-06-14T09:00:10.000Z</time>
      </trkpt>
      <trkpt lat="48.70338" lon="1.7739">
        <ele>177.8</ele>
        <time>2015-06-14T09:00:16.000Z</time>
      </trkpt>
      <trkpt lat="48.70334" lon="1.77395">
        <ele>178</ele>
        <time>2015-06-14T09:00:20.000Z</time>
      </trkpt>
      <trkpt lat="48.70324" lon="1.77406">
        <ele>178</ele>
        <time>2015-06-14T09:00:28.000Z</time>
      </trkpt>
      <trkpt lat="48.70319" lon="1.77416">
        <ele>178</ele>
        <time>2015-06-14T09:00:34.000Z</time>
      </trkpt>
      <trkpt lat="48.70309" lon="1.77429">
        <ele>178</ele>
        <time>2015-06-14T09:00:42.000Z</time>
      </trkpt>
      <trkpt lat="48.70303" lon="1.7744">
        <ele>178.1</ele>
        <time>2015-06-14T09:00:48.000Z</time>
      </trkpt>
      <trkpt lat="48.70295" lon="1.77449">
        <ele>178.4</ele>
        <time>2015-06-14T09:00:55.000Z</time>
      </trkpt>
      <trkpt lat="48.7029" lon="1.77464">
        <ele>178.5</ele>
        <time>2015-06-14T09:01:02.000Z</time>
      </trkpt>
      <trkpt lat="48.70284" lon="1.77476">
        <ele>178.8</ele>
        <time>2015-06-14T09:01:08.000Z</time>
      </trkpt>
      <trkpt lat="48.70276" lon="1.7749">
        <ele>179</ele>
        <time>2015-06-14T09:01:16.000Z</time>
      </trkpt>
      <trkpt lat="48.70268" lon="1.77502">
        <ele>179</ele>
        <time>2015-06-14T09:01:23.000Z</time>
      </trkpt>
      <trkpt lat="48.7026" lon="1.77511">
        <ele>179</ele>
        <time>2015-06-14T09:01:30.000Z</time>
      </trkpt>
      <trkpt lat="48.70251" lon="1.77521">
        <ele>179</ele>
        <time>2015-06-14T09:01:37.000Z</time>
      </trkpt>
      <trkpt lat="48.70242" lon="1.77529">
        <ele>179</ele>
        <time>2015-06-14T09:01:44.000Z</time>
      </trkpt>
      <trkpt lat="48.70238" lon="1.77541">
        <ele>179</ele>
        <time>2015-06-14T09:01:51.000Z</time>
      </trkpt>
      <trkpt lat="48.70235" lon="1.77555">
        <ele>179</ele>
        <time>2015-06-14T09:01:58.000Z</time>
      </trkpt>
      <trkpt lat="48.70234" lon="1.77558">
        <ele>179</ele>
        <time>2015-06-14T09:02:00.000Z</time>
      </trkpt>
      <trkpt lat="48.70234" lon="1.77577">
        <ele>179</ele>
        <time>2015-06-14T09:02:10.000Z</time>
      </trkpt>
      <trkpt lat="48.70238" lon="1.77593">
        <ele>179</ele>
        <time>2015-06-14T09:02:17.000Z</time>
      </trkpt>
      <trkpt lat="48.70241" lon="1.77607">
        <ele>179</ele>
        <time>2015-06-14T09:02:24.000Z</time>
      </trkpt>
      <trkpt lat="48.70241" lon="1.77622">
        <ele>179</ele>
        <time>2015-06-14T09:02:31.000Z</time>
      </trkpt>
      <trkpt lat="48.70243" lon="1.77631">
        <ele>179</ele>
        <time>2015-06-14T09:02:36.000Z</time>
      </trkpt>
      <trkpt lat="48.70245" lon="1.77648">
        <ele>179</ele>
        <time>2015-06-14T09:02:44.000Z</time>
      </trkpt>
      <trkpt lat="48.70245" lon="1.77653">
        <ele>179</ele>
        <time>2015-06-14T09:02:47.000Z</time>
      </trkpt>
      <trkpt lat="48.70246" lon="1.77663">
        <ele>179</ele>
        <time>2015-06-14T09:02:51.000Z</time>
      </trkpt>
      <trkpt lat="48.70245" lon="1.77674">
        <ele>178.8</ele>
        <time>2015-06-14T09:02:56.000Z</time>
      </trkpt>
      <trkpt lat="48.70244" lon="1.77676">
        <ele>178.7</ele>
        <time>2015-06-14T09:02:57.000Z</time>
      </trkpt>
      <trkpt lat="48.70243" lon="1.77685">
        <ele>178.5</ele>
        <time>2015-06-14T09:03:01.000Z</time>
      </trkpt>
      <trkpt lat="48.70242" lon="1.77694">
        <ele>178.3</ele>
        <time>2015-06-14T09:03:05.000Z</time>
      </trkpt>
      <trkpt lat="48.70236" lon="1.77712">
        <ele>178.8</ele>
        <time>2015-06-14T09:03:14.000Z</time>
      </trkpt>
      <trkpt lat="48.7023" lon="1.77728">
        <ele>179</ele>
        <time>2015-06-14T09:03:22.000Z</time>
      </trkpt>
      <trkpt lat="48.70225" lon="1.7774">
        <ele>179</ele>
        <time>2015-06-14T09:03:28.000Z</time>
      </trkpt>
      <trkpt lat="48.70222" lon="1.7775">
        <ele>179</ele>
        <time>2015-06-14T09:03:34.000Z</time>
      </trkpt>
      <trkpt lat="48.7022" lon="1.77755">
        <ele>179</ele>
        <time>2015-06-14T09:03:37.000Z</time>
      </trkpt>
      <trkpt lat="48.70212" lon="1.77769">
        <ele>179</ele>
        <time>2015-06-14T09:03:45.000Z</time>
      </trkpt>
      <trkpt lat="48.70204" lon="1.77779">
        <ele>179</ele>
        <time>2015-06-14T09:03:53.000Z</time>
      </trkpt>
      <trkpt lat="48.70194" lon="1.77788">
        <ele>179</ele>
        <time>2015-06-14T09:04:00.000Z</time>
      </trkpt>
      <trkpt lat="48.7019" lon="1.77795">
        <ele>178.8</ele>
        <time>2015-06-14T09:04:06.000Z</time>
      </trkpt>
      <trkpt lat="48.70188" lon="1.77795">
        <ele>178.8</ele>
        <time>2015-06-14T09:04:07.000Z</time>
      </trkpt>
      <trkpt lat="48.70177" lon="1.77788">
        <ele>178.4</ele>
        <time>2015-06-14T09:04:16.000Z</time>
      </trkpt>
      <trkpt lat="48.70175" lon="1.77785">
        <ele>178.3</ele>
        <time>2015-06-14T09:04:18.000Z</time>
      </trkpt>
      <trkpt lat="48.7017" lon="1.7778">
        <ele>178.1</ele>
        <time>2015-06-14T09:04:23.000Z</time>
      </trkpt>
      <trkpt lat="48.70157" lon="1.77768">
        <ele>178.2</ele>
        <time>2015-06-14T09:04:33.000Z</time>
      </trkpt>
      <trkpt lat="48.70147" lon="1.77756">
        <ele>178.2</ele>
        <time>2015-06-14T09:04:41.000Z</time>
      </trkpt>
      <trkpt lat="48.70139" lon="1.77749">
        <ele>178</ele>
        <time>2015-06-14T09:04:47.000Z</time>
      </trkpt>
      <trkpt lat="48.7013" lon="1.77741">
        <ele>178.2</ele>
        <time>2015-06-14T09:04:55.000Z</time>
      </trkpt>
      <trkpt lat="48.70124" lon="1.77734">
        <ele>178.3</ele>
        <time>2015-06-14T09:05:00.000Z</time>
      </trkpt>
      <trkpt lat="48.70115" lon="1.7772">
        <ele>178.2</ele>
        <time>2015-06-14T09:05:10.000Z</time>
      </trkpt>
      <trkpt lat="48.70117" lon="1.77709">
        <ele>178.6</ele>
        <time>2015-06-14T09:05:16.000Z</time>
      </trkpt>
      <trkpt lat="48.70116" lon="1.77701">
        <ele>178.8</ele>
        <time>2015-06-14T09:05:20.000Z</time>
      </trkpt>
      <trkpt lat="48.70113" lon="1.77695">
        <ele>179</ele>
        <time>2015-06-14T09:05:24.000Z</time>
      </trkpt>
      <trkpt lat="48.70105" lon="1.77688">
        <ele>178.6</ele>
        <time>2015-06-14T09:05:31.000Z</time>
      </trkpt>
      <trkpt lat="48.70096" lon="1.77686">
        <ele>178.3</ele>
        <time>2015-06-14T09:05:38.000Z</time>
      </trkpt>
      <trkpt lat="48.70088" lon="1.77693">
        <ele>178.2</ele>
        <time>2015-06-14T09:05:45.000Z</time>
      </trkpt>
      <trkpt lat="48.70078" lon="1.7771">
        <ele>178</ele>
        <time>2015-06-14T09:05:55.000Z</time>
      </trkpt>
      <trkpt lat="48.70067" lon="1.7773">
        <ele>178</ele>
        <time>2015-06-14T09:06:07.000Z</time>
      </trkpt>
      <trkpt lat="48.70064" lon="1.77736">
        <ele>178</ele>
        <time>2015-06-14T09:06:10.000Z</time>
      </trkpt>
      <trkpt lat="48.7006" lon="1.77745">
        <ele>178</ele>
        <time>2015-06-14T09:06:15.000Z</time>
      </trkpt>
      <trkpt lat="48.70056" lon="1.77755">
        <ele>178.2</ele>
        <time>2015-06-14T09:06:20.000Z</time>
      </trkpt>
      <trkpt lat="48.70046" lon="1.77775">
        <ele>178.9</ele>
        <time>2015-06-14T09:06:30.000Z</time>
      </trkpt>
      <trkpt lat="48.70038" lon="1.77789">
        <ele>179</ele>
        <time>2015-06-14T09:06:38.000Z</time>
      </trkpt>
      <trkpt lat="48.7003" lon="1.77803">
        <ele>179</ele>
        <time>2015-06-14T09:06:46.000Z</time>
      </trkpt>
      <trkpt lat="48.70023" lon="1.77817">
        <ele>179</ele>
        <time>2015-06-14T09:06:54.000Z</time>
      </trkpt>
      <trkpt lat="48.70016" lon="1.77833">
        <ele>179</ele>
        <time>2015-06-14T09:07:03.000Z</time>
      </trkpt>
      <trkpt lat="48.70007" lon="1.77848">
        <ele>179</ele>
        <time>2015-06-14T09:07:12.000Z</time>
      </trkpt>
      <trkpt lat="48.70003" lon="1.77856">
        <ele>179</ele>
        <time>2015-06-14T09:07:17.000Z</time>
      </trkpt>
      <trkpt lat="48.69995" lon="1.77872">
        <ele>179</ele>
        <time>2015-06-14T09:07:26.000Z</time>
      </trkpt>
      <trkpt lat="48.6999" lon="1.77883">
        <ele>179</ele>
        <time>2015-06-14T09:07:32.000Z</time>
      </trkpt>
      <trkpt lat="48.69982" lon="1.77899">
        <ele>178.6</ele>
        <time>2015-06-14T09:07:41.000Z</time>
      </trkpt>
      <trkpt lat="48.69976" lon="1.7791">
        <ele>178.2</ele>
        <time>2015-06-14T09:07:49.000Z</time>
      </trkpt>
      <trkpt lat="48.69976" lon="1.7791">
        <ele>178.2</ele>
        <time>2015-06-14T09:07:50.000Z</time>
      </trkpt>
      <trkpt lat="48.69972" lon="1.77918">
        <ele>178</ele>
        <time>2015-06-14T09:08:01.000Z</time>
      </trkpt>
      <trkpt lat="48.69966" lon="1.77928">
        <ele>177.9</ele>
        <time>2015-06-14T09:08:07.000Z</time>
      </trkpt>
      <trkpt lat="48.69965" lon="1.77932">
        <ele>177.9</ele>
        <time>2015-06-14T09:08:09.000Z</time>
      </trkpt>
      <trkpt lat="48.69957" lon="1.77948">
        <ele>177.5</ele>
        <time>2015-06-14T09:08:18.000Z</time>
      </trkpt>
      <trkpt lat="48.69949" lon="1.77961">
        <ele>177.2</ele>
        <time>2015-06-14T09:08:26.000Z</time>
      </trkpt>
      <trkpt lat="48.69945" lon="1.77977">
        <ele>177</ele>
        <time>2015-06-14T09:08:33.000Z</time>
      </trkpt>
      <trkpt lat="48.69942" lon="1.77986">
        <ele>177</ele>
        <time>2015-06-14T09:08:37.000Z</time>
      </trkpt>
      <trkpt lat="48.6994" lon="1.77995">
        <ele>177</ele>
        <time>2015-06-14T09:08:41.000Z</time>
      </trkpt>
      <trkpt lat="48.69934" lon="1.78006">
        <ele>176.9</ele>
        <time>2015-06-14T09:08:47.000Z</time>
      </trkpt>
      <trkpt lat="48.69929" lon="1.78015">
        <ele>176.7</ele>
        <time>2015-06-14T09:08:52.000Z</time>
      </trkpt>
      <trkpt lat="48.69922" lon="1.7803">
        <ele>176.2</ele>
        <time>2015-06-14T09:09:00.000Z</time>
      </trkpt>
      <trkpt lat="48.69917" lon="1.78045">
        <ele>176</ele>
        <time>2015-06-14T09:09:08.000Z</time>
      </trkpt>
      <trkpt lat="48.6992" lon="1.78055">
        <ele>176</ele>
        <time>2015-06-14T09:09:14.000Z</time>
      </trkpt>
      <trkpt lat="48.69924" lon="1.78062">
        <ele>175.8</ele>
        <time>2015-06-14T09:09:18.000Z</time>
      </trkpt>
      <trkpt lat="48.69936" lon="1.78078">
        <ele>175.7</ele>
        <time>2015-06-14T09:09:29.000Z</time>
      </trkpt>
      <trkpt lat="48.69941" lon="1.78088">
        <ele>175.9</ele>
        <time>2015-06-14T09:09:35.000Z</time>
      </trkpt>
      <trkpt lat="48.6995" lon="1.78102">
        <ele>176</ele>
        <time>2015-06-14T09:09:44.000Z</time>
      </trkpt>
      <trkpt lat="48.69957" lon="1.78113">
        <ele>176</ele>
        <time>2015-06-14T09:09:51.000Z</time>
      </trkpt>
      <trkpt lat="48.69958" lon="1.78115">
        <ele>176</ele>
        <time>2015-06-14T09:09:52.000Z</time>
      </trkpt>
      <trkpt lat="48.69962" lon="1.78125">
        <ele>176</ele>
        <time>2015-06-14T09:09:58.000Z</time>
      </trkpt>
      <trkpt lat="48.69965" lon="1.78132">
        <ele>176</ele>
        <time>2015-06-14T09:10:01.000Z</time>
      </trkpt>
      <trkpt lat="48.69975" lon="1.78151">
        <ele>176</ele>
        <time>2015-06-14T09:10:12.000Z</time>
      </trkpt>
      <trkpt lat="48.69984" lon="1.78165">
        <ele>176</ele>
        <time>2015-06-14T09:10:21.000Z</time>
      </trkpt>
      <trkpt lat="48.69988" lon="1.7817">
        <ele>176</ele>
        <time>2015-06-14T09:10:24.000Z</time>
      </trkpt>
      <trkpt lat="48.69993" lon="1.78181">
        <ele>176</ele>
        <time>2015-06-14T09:10:30.000Z</time>
      </trkpt>
      <trkpt lat="48.70003" lon="1.78196">
        <ele>176.2</ele>
        <time>2015-06-14T09:10:39.000Z</time>
      </trkpt>
      <trkpt lat="48.70011" lon="1.78209">
        <ele>176.5</ele>
        <time>2015-06-14T09:10:47.000Z</time>
      </trkpt>
      <trkpt lat="48.70015" lon="1.78219">
        <ele>176.5</ele>
        <time>2015-06-14T09:10:52.000Z</time>
      </trkpt>
      <trkpt lat="48.70012" lon="1.78228">
        <ele>176.4</ele>
        <time>2015-06-14T09:10:58.000Z</time>
      </trkpt>
      <trkpt lat="48.7001" lon="1.78233">
        <ele>176.4</ele>
        <time>2015-06-14T09:11:04.000Z</time>
      </trkpt>
      <trkpt lat="48.70002" lon="1.78242">
        <ele>176.3</ele>
        <time>2015-06-14T09:11:10.000Z</time>
      </trkpt>
      <trkpt lat="48.69989" lon="1.78253">
        <ele>176</ele>
        <time>2015-06-14T09:11:19.000Z</time>
      </trkpt>
      <trkpt lat="48.69976" lon="1.78263">
        <ele>176</ele>
        <time>2015-06-14T09:11:29.000Z</time>
      </trkpt>
      <trkpt lat="48.69965" lon="1.78271">
        <ele>176.3</ele>
        <time>2015-06-14T09:11:38.000Z</time>
      </trkpt>
      <trkpt lat="48.69951" lon="1.78283">
        <ele>176.8</ele>
        <time>2015-06-14T09:11:48.000Z</time>
      </trkpt>
      <trkpt lat="48.69941" lon="1.78291">
        <ele>177</ele>
        <time>2015-06-14T09:11:56.000Z</time>
      </trkpt>
      <trkpt lat="48.69928" lon="1.78298">
        <ele>177</ele>
        <time>2015-06-14T09:12:05.000Z</time>
      </trkpt>
      <trkpt lat="48.69924" lon="1.78304">
        <ele>177</ele>
        <time>2015-06-14T09:12:09.000Z</time>
      </trkpt>
      <trkpt lat="48.69915" lon="1.7831">
        <ele>177</ele>
        <time>2015-06-14T09:12:15.000Z</time>
      </trkpt>
      <trkpt lat="48.69906" lon="1.7832">
        <ele>177.4</ele>
        <time>2015-06-14T09:12:23.000Z</time>
      </trkpt>
      <trkpt lat="48.69901" lon="1.78324">
        <ele>177.6</ele>
        <time>2015-06-14T09:12:28.000Z</time>
      </trkpt>
      <trkpt lat="48.69891" lon="1.78336">
        <ele>177.9</ele>
        <time>2015-06-14T09:12:37.000Z</time>
      </trkpt>
      <trkpt lat="48.69893" lon="1.7835">
        <ele>177.9</ele>
        <time>2015-06-14T09:12:44.000Z</time>
      </trkpt>
      <trkpt lat="48.69895" lon="1.78362">
        <ele>178</ele>
        <time>2015-06-14T09:12:49.000Z</time>
      </trkpt>
      <trkpt lat="48.69897" lon="1.78386">
        <ele>178</ele>
        <time>2015-06-14T09:13:00.000Z</time>
      </trkpt>
      <trkpt lat="48.699" lon="1.78408">
        <ele>178</ele>
        <time>2015-06-14T09:13:10.000Z</time>
      </trkpt>
      <trkpt lat="48.69905" lon="1.7843">
        <ele>178</ele>
        <time>2015-06-14T09:13:21.000Z</time>
      </trkpt>
      <trkpt lat="48.69909" lon="1.78448">
        <ele>178</ele>
        <time>2015-06-14T09:13:30.000Z</time>
      </trkpt>
      <trkpt lat="48.69911" lon="1.7846">
        <ele>178</ele>
        <time>2015-06-14T09:13:36.000Z</time>
      </trkpt>
      <trkpt lat="48.69913" lon="1.78474">
        <ele>178</ele>
        <time>2015-06-14T09:13:43.000Z</time>
      </trkpt>
      <trkpt lat="48.69916" lon="1.78489">
        <ele>178</ele>
        <time>2015-06-14T09:13:50.000Z</time>
      </trkpt>
      <trkpt lat="48.69919" lon="1.78506">
        <ele>178.2</ele>
        <time>2015-06-14T09:13:57.000Z</time>
      </trkpt>
      <trkpt lat="48.69919" lon="1.78522">
        <ele>178.7</ele>
        <time>2015-06-14T09:14:04.000Z</time>
      </trkpt>
      <trkpt lat="48.6992" lon="1.78536">
        <ele>178.9</ele>
        <time>2015-06-14T09:14:11.000Z</time>
      </trkpt>
      <trkpt lat="48.69921" lon="1.78553">
        <ele>178.9</ele>
        <time>2015-06-14T09:14:19.000Z</time>
      </trkpt>
      <trkpt lat="48.69921" lon="1.78568">
        <ele>178.9</ele>
        <time>2015-06-14T09:14:26.000Z</time>
      </trkpt>
      <trkpt lat="48.69921" lon="1.78584">
        <ele>178.8</ele>
        <time>2015-06-14T09:14:34.000Z</time>
      </trkpt>
      <trkpt lat="48.69922" lon="1.78597">
        <ele>178.8</ele>
        <time>2015-06-14T09:14:40.000Z</time>
      </trkpt>
      <trkpt lat="48.69921" lon="1.78614">
        <ele>178.8</ele>
        <time>2015-06-14T09:14:46.000Z</time>
      </trkpt>
      <trkpt lat="48.69921" lon="1.78628">
        <ele>178.8</ele>
        <time>2015-06-14T09:14:52.000Z</time>
      </trkpt>
      <trkpt lat="48.69921" lon="1.78645">
        <ele>178.8</ele>
        <time>2015-06-14T09:14:59.000Z</time>
      </trkpt>
      <trkpt lat="48.69923" lon="1.78665">
        <ele>178.8</ele>
        <time>2015-06-14T09:15:08.000Z</time>
      </trkpt>
      <trkpt lat="48.69923" lon="1.78682">
        <ele>178.3</ele>
        <time>2015-06-14T09:15:15.000Z</time>
      </trkpt>
      <trkpt lat="48.69925" lon="1.78696">
        <ele>178</ele>
        <time>2015-06-14T09:15:21.000Z</time>
      </trkpt>
      <trkpt lat="48.69925" lon="1.78699">
        <ele>178</ele>
        <time>2015-06-14T09:15:22.000Z</time>
      </trkpt>
      <trkpt lat="48.69924" lon="1.78714">
        <ele>178</ele>
        <time>2015-06-14T09:15:28.000Z</time>
      </trkpt>
      <trkpt lat="48.69926" lon="1.78734">
        <ele>178</ele>
        <time>2015-06-14T09:15:36.000Z</time>
      </trkpt>
      <trkpt lat="48.69926" lon="1.78752">
        <ele>178</ele>
        <time>2015-06-14T09:15:45.000Z</time>
      </trkpt>
      <trkpt lat="48.69928" lon="1.78767">
        <ele>178</ele>
        <time>2015-06-14T09:15:52.000Z</time>
      </trkpt>
      <trkpt lat="48.6993" lon="1.78777">
        <ele>178</ele>
        <time>2015-06-14T09:15:57.000Z</time>
      </trkpt>
      <trkpt lat="48.69931" lon="1.78788">
        <ele>178</ele>
        <time>2015-06-14T09:16:03.000Z</time>
      </trkpt>
      <trkpt lat="48.69936" lon="1.78791">
        <ele>178</ele>
        <time>2015-06-14T09:16:08.000Z</time>
      </trkpt>
      <trkpt lat="48.69937" lon="1.788">
        <ele>178</ele>
        <time>2015-06-14T09:16:15.000Z</time>
      </trkpt>
      <trkpt lat="48.6993" lon="1.78802">
        <ele>178</ele>
        <time>2015-06-14T09:16:21.000Z</time>
      </trkpt>
      <trkpt lat="48.69923" lon="1.78804">
        <ele>178</ele>
        <time>2015-06-14T09:16:26.000Z</time>
      </trkpt>
      <trkpt lat="48.69912" lon="1.78803">
        <ele>178</ele>
        <time>2015-06-14T09:16:33.000Z</time>
      </trkpt>
      <trkpt lat="48.69899" lon="1.788">
        <ele>178</ele>
        <time>2015-06-14T09:16:38.000Z</time>
      </trkpt>
      <trkpt lat="48.69896" lon="1.788">
        <ele>178</ele>
        <time>2015-06-14T09:16:39.000Z</time>
      </trkpt>
      <trkpt lat="48.6988" lon="1.78801">
        <ele>178.3</ele>
        <time>2015-06-14T09:16:45.000Z</time>
      </trkpt>
      <trkpt lat="48.69861" lon="1.78798">
        <ele>178.7</ele>
        <time>2015-06-14T09:16:51.000Z</time>
      </trkpt>
      <trkpt lat="48.69847" lon="1.78798">
        <ele>178.7</ele>
        <time>2015-06-14T09:16:56.000Z</time>
      </trkpt>
      <trkpt lat="48.69828" lon="1.78797">
        <ele>178.7</ele>
        <time>2015-06-14T09:17:02.000Z</time>
      </trkpt>
      <trkpt lat="48.6981" lon="1.78795">
        <ele>178.6</ele>
        <time>2015-06-14T09:17:08.000Z</time>
      </trkpt>
      <trkpt lat="48.69794" lon="1.78793">
        <ele>178.3</ele>
        <time>2015-06-14T09:17:13.000Z</time>
      </trkpt>
      <trkpt lat="48.69771" lon="1.78792">
        <ele>178</ele>
        <time>2015-06-14T09:17:20.000Z</time>
      </trkpt>
      <trkpt lat="48.69743" lon="1.78796">
        <ele>178</ele>
        <time>2015-06-14T09:17:29.000Z</time>
      </trkpt>
      <trkpt lat="48.69711" lon="1.78811">
        <ele>178</ele>
        <time>2015-06-14T09:17:39.000Z</time>
      </trkpt>
      <trkpt lat="48.69685" lon="1.78821">
        <ele>178</ele>
        <time>2015-06-14T09:17:47.000Z</time>
      </trkpt>
      <trkpt lat="48.69663" lon="1.78832">
        <ele>178</ele>
        <time>2015-06-14T09:17:54.000Z</time>
      </trkpt>
      <trkpt lat="48.69633" lon="1.78845">
        <ele>178</ele>
        <time>2015-06-14T09:18:03.000Z</time>
      </trkpt>
      <trkpt lat="48.69601" lon="1.78861">
        <ele>178</ele>
        <time>2015-06-14T09:18:13.000Z</time>
      </trkpt>
      <trkpt lat="48.69579" lon="1.78871">
        <ele>177.8</ele>
        <time>2015-06-14T09:18:20.000Z</time>
      </trkpt>
      <trkpt lat="48.6955" lon="1.78882">
        <ele>177</ele>
        <time>2015-06-14T09:18:29.000Z</time>
      </trkpt>
      <trkpt lat="48.69521" lon="1.78891">
        <ele>177</ele>
        <time>2015-06-14T09:18:38.000Z</time>
      </trkpt>
      <trkpt lat="48.69495" lon="1.7889">
        <ele>177</ele>
        <time>2015-06-14T09:18:46.000Z</time>
      </trkpt>
      <trkpt lat="48.69466" lon="1.78893">
        <ele>177</ele>
        <time>2015-06-14T09:18:55.000Z</time>
      </trkpt>
      <trkpt lat="48.69441" lon="1.78894">
        <ele>177</ele>
        <time>2015-06-14T09:19:03.000Z</time>
      </trkpt>
      <trkpt lat="48.69422" lon="1.78903">
        <ele>177</ele>
        <time>2015-06-14T09:19:10.000Z</time>
      </trkpt>
      <trkpt lat="48.69416" lon="1.78904">
        <ele>177</ele>
        <time>2015-06-14T09:19:13.000Z</time>
      </trkpt>
      <trkpt lat="48.69405" lon="1.78899">
        <ele>176.8</ele>
        <time>2015-06-14T09:19:21.000Z</time>
      </trkpt>
      <trkpt lat="48.69397" lon="1.789">
        <ele>176.7</ele>
        <time>2015-06-14T09:19:26.000Z</time>
      </trkpt>
      <trkpt lat="48.69385" lon="1.789">
        <ele>176.6</ele>
        <time>2015-06-14T09:19:35.000Z</time>
      </trkpt>
      <trkpt lat="48.69376" lon="1.78902">
        <ele>176.5</ele>
        <time>2015-06-14T09:19:41.000Z</time>
      </trkpt>
      <trkpt lat="48.69366" lon="1.78904">
        <ele>176.4</ele>
        <time>2015-06-14T09:19:48.000Z</time>
      </trkpt>
      <trkpt lat="48.69355" lon="1.78905">
        <ele>176.5</ele>
        <time>2015-06-14T09:19:56.000Z</time>
      </trkpt>
      <trkpt lat="48.69346" lon="1.78905">
        <ele>176.7</ele>
        <time>2015-06-14T09:20:02.000Z</time>
      </trkpt>
      <trkpt lat="48.69339" lon="1.78906">
        <ele>176.9</ele>
        <time>2015-06-14T09:20:08.000Z</time>
      </trkpt>
      <trkpt lat="48.69329" lon="1.78905">
        <ele>176.9</ele>
        <time>2015-06-14T09:20:14.000Z</time>
      </trkpt>
      <trkpt lat="48.69321" lon="1.78903">
        <ele>176.8</ele>
        <time>2015-06-14T09:20:20.000Z</time>
      </trkpt>
      <trkpt lat="48.69314" lon="1.78901">
        <ele>176.7</ele>
        <time>2015-06-14T09:20:25.000Z</time>
      </trkpt>
      <trkpt lat="48.69305" lon="1.78896">
        <ele>176.7</ele>
        <time>2015-06-14T09:20:32.000Z</time>
      </trkpt>
      <trkpt lat="48.693" lon="1.78895">
        <ele>176.6</ele>
        <time>2015-06-14T09:20:36.000Z</time>
      </trkpt>
      <trkpt lat="48.69289" lon="1.78889">
        <ele>176.4</ele>
        <time>2015-06-14T09:20:43.000Z</time>
      </trkpt>
      <trkpt lat="48.69277" lon="1.78884">
        <ele>176.2</ele>
        <time>2015-06-14T09:20:51.000Z</time>
      </trkpt>
      <trkpt lat="48.6927" lon="1.78881">
        <ele>176.2</ele>
        <time>2015-06-14T09:20:56.000Z</time>
      </trkpt>
      <trkpt lat="48.69266" lon="1.78879">
        <ele>176.2</ele>
        <time>2015-06-14T09:21:02.000Z</time>
      </trkpt>
      <trkpt lat="48.69268" lon="1.7888">
        <ele>176.2</ele>
        <time>2015-06-14T09:21:06.000Z</time>
      </trkpt>
      <trkpt lat="48.69268" lon="1.7888">
        <ele>176.2</ele>
        <time>2015-06-14T09:21:07.000Z</time>
      </trkpt>
      <trkpt lat="48.6926" lon="1.78881">
        <ele>176.1</ele>
        <time>2015-06-14T09:21:37.000Z</time>
      </trkpt>
      <trkpt lat="48.69255" lon="1.78879">
        <ele>176.1</ele>
        <time>2015-06-14T09:21:40.000Z</time>
      </trkpt>
      <trkpt lat="48.69244" lon="1.78874">
        <ele>176</ele>
        <time>2015-06-14T09:21:48.000Z</time>
      </trkpt>
      <trkpt lat="48.69243" lon="1.78873">
        <ele>176</ele>
        <time>2015-06-14T09:21:49.000Z</time>
      </trkpt>
      <trkpt lat="48.69234" lon="1.78871">
        <ele>176</ele>
        <time>2015-06-14T09:21:56.000Z</time>
      </trkpt>
      <trkpt lat="48.69233" lon="1.7887">
        <ele>176</ele>
        <time>2015-06-14T09:21:57.000Z</time>
      </trkpt>
      <trkpt lat="48.69223" lon="1.78872">
        <ele>176</ele>
        <time>2015-06-14T09:22:06.000Z</time>
      </trkpt>
      <trkpt lat="48.69216" lon="1.78877">
        <ele>176</ele>
        <time>2015-06-14T09:22:13.000Z</time>
      </trkpt>
      <trkpt lat="48.69209" lon="1.78882">
        <ele>176</ele>
        <time>2015-06-14T09:22:20.000Z</time>
      </trkpt>
      <trkpt lat="48.69205" lon="1.78886">
        <ele>176</ele>
        <time>2015-06-14T09:22:23.000Z</time>
      </trkpt>
      <trkpt lat="48.69195" lon="1.78892">
        <ele>176</ele>
        <time>2015-06-14T09:22:31.000Z</time>
      </trkpt>
      <trkpt lat="48.69187" lon="1.78901">
        <ele>176</ele>
        <time>2015-06-14T09:22:39.000Z</time>
      </trkpt>
      <trkpt lat="48.69177" lon="1.78911">
        <ele>176</ele>
        <time>2015-06-14T09:22:48.000Z</time>
      </trkpt>
      <trkpt lat="48.69174" lon="1.78914">
        <ele>176</ele>
        <time>2015-06-14T09:22:51.000Z</time>
      </trkpt>
      <trkpt lat="48.69168" lon="1.78917">
        <ele>176</ele>
        <time>2015-06-14T09:22:55.000Z</time>
      </trkpt>
      <trkpt lat="48.69156" lon="1.78928">
        <ele>176</ele>
        <time>2015-06-14T09:23:04.000Z</time>
      </trkpt>
      <trkpt lat="48.69146" lon="1.78939">
        <ele>176</ele>
        <time>2015-06-14T09:23:12.000Z</time>
      </trkpt>
      <trkpt lat="48.69136" lon="1.78951">
        <ele>176</ele>
        <time>2015-06-14T09:23:20.000Z</time>
      </trkpt>
      <trkpt lat="48.69129" lon="1.78961">
        <ele>176</ele>
        <time>2015-06-14T09:23:27.000Z</time>
      </trkpt>
      <trkpt lat="48.6912" lon="1.78969">
        <ele>176</ele>
        <time>2015-06-14T09:23:34.000Z</time>
      </trkpt>
      <trkpt lat="48.6911" lon="1.78976">
        <ele>176</ele>
        <time>2015-06-14T09:23:41.000Z</time>
      </trkpt>
      <trkpt lat="48.69099" lon="1.78986">
        <ele>176</ele>
        <time>2015-06-14T09:23:50.000Z</time>
      </trkpt>
      <trkpt lat="48.69089" lon="1.78996">
        <ele>176</ele>
        <time>2015-06-14T09:23:59.000Z</time>
      </trkpt>
      <trkpt lat="48.69082" lon="1.79003">
        <ele>176.1</ele>
        <time>2015-06-14T09:24:05.000Z</time>
      </trkpt>
      <trkpt lat="48.69075" lon="1.79011">
        <ele>176.4</ele>
        <time>2015-06-14T09:24:11.000Z</time>
      </trkpt>
      <trkpt lat="48.69064" lon="1.7902">
        <ele>176.7</ele>
        <time>2015-06-14T09:24:18.000Z</time>
      </trkpt>
      <trkpt lat="48.69057" lon="1.79027">
        <ele>177</ele>
        <time>2015-06-14T09:24:24.000Z</time>
      </trkpt>
      <trkpt lat="48.69047" lon="1.79037">
        <ele>176.8</ele>
        <time>2015-06-14T09:24:32.000Z</time>
      </trkpt>
      <trkpt lat="48.69039" lon="1.79045">
        <ele>176.8</ele>
        <time>2015-06-14T09:24:40.000Z</time>
      </trkpt>
      <trkpt lat="48.69027" lon="1.79056">
        <ele>177</ele>
        <time>2015-06-14T09:24:49.000Z</time>
      </trkpt>
      <trkpt lat="48.69018" lon="1.79064">
        <ele>176.6</ele>
        <time>2015-06-14T09:24:56.000Z</time>
      </trkpt>
      <trkpt lat="48.69006" lon="1.79077">
        <ele>176.2</ele>
        <time>2015-06-14T09:25:05.000Z</time>
      </trkpt>
      <trkpt lat="48.68996" lon="1.79087">
        <ele>176</ele>
        <time>2015-06-14T09:25:13.000Z</time>
      </trkpt>
      <trkpt lat="48.68985" lon="1.79099">
        <ele>176</ele>
        <time>2015-06-14T09:25:22.000Z</time>
      </trkpt>
      <trkpt lat="48.68978" lon="1.79106">
        <ele>176</ele>
        <time>2015-06-14T09:25:28.000Z</time>
      </trkpt>
      <trkpt lat="48.68975" lon="1.79109">
        <ele>176</ele>
        <time>2015-06-14T09:25:31.000Z</time>
      </trkpt>
      <trkpt lat="48.68969" lon="1.79116">
        <ele>176</ele>
        <time>2015-06-14T09:25:38.000Z</time>
      </trkpt>
      <trkpt lat="48.68966" lon="1.7912">
        <ele>176</ele>
        <time>2015-06-14T09:25:41.000Z</time>
      </trkpt>
      <trkpt lat="48.68961" lon="1.79123">
        <ele>176</ele>
        <time>2015-06-14T09:25:45.000Z</time>
      </trkpt>
      <trkpt lat="48.68952" lon="1.79131">
        <ele>176</ele>
        <time>2015-06-14T09:25:52.000Z</time>
      </trkpt>
      <trkpt lat="48.68945" lon="1.79139">
        <ele>176</ele>
        <time>2015-06-14T09:25:58.000Z</time>
      </trkpt>
      <trkpt lat="48.68936" lon="1.79147">
        <ele>176</ele>
        <time>2015-06-14T09:26:05.000Z</time>
      </trkpt>
      <trkpt lat="48.68929" lon="1.79153">
        <ele>176</ele>
        <time>2015-06-14T09:26:11.000Z</time>
      </trkpt>
      <trkpt lat="48.68922" lon="1.79157">
        <ele>176</ele>
        <time>2015-06-14T09:26:17.000Z</time>
      </trkpt>
      <trkpt lat="48.68913" lon="1.79167">
        <ele>176</ele>
        <time>2015-06-14T09:26:25.000Z</time>
      </trkpt>
      <trkpt lat="48.68909" lon="1.79176">
        <ele>176</ele>
        <time>2015-06-14T09:26:30.000Z</time>
      </trkpt>
      <trkpt lat="48.68911" lon="1.79183">
        <ele>176</ele>
        <time>2015-06-14T09:26:35.000Z</time>
      </trkpt>
      <trkpt lat="48.68911" lon="1.79186">
        <ele>176</ele>
        <time>2015-06-14T09:26:37.000Z</time>
      </trkpt>
      <trkpt lat="48.68918" lon="1.79197">
        <ele>176</ele>
        <time>2015-06-14T09:26:44.000Z</time>
      </trkpt>
      <trkpt lat="48.68923" lon="1.79205">
        <ele>176</ele>
        <time>2015-06-14T09:26:50.000Z</time>
      </trkpt>
      <trkpt lat="48.68931" lon="1.79217">
        <ele>176</ele>
        <time>2015-06-14T09:26:57.000Z</time>
      </trkpt>
      <trkpt lat="48.68934" lon="1.79223">
        <ele>176</ele>
        <time>2015-06-14T09:27:00.000Z</time>
      </trkpt>
      <trkpt lat="48.68936" lon="1.79226">
        <ele>176</ele>
        <time>2015-06-14T09:27:05.000Z</time>
      </trkpt>
      <trkpt lat="48.68936" lon="1.79226">
        <ele>176</ele>
        <time>2015-06-14T09:27:06.000Z</time>
      </trkpt>
      <trkpt lat="48.68939" lon="1.79234">
        <ele>176</ele>
        <time>2015-06-14T09:27:26.000Z</time>
      </trkpt>
      <trkpt lat="48.68945" lon="1.79245">
        <ele>176</ele>
        <time>2015-06-14T09:27:31.000Z</time>
      </trkpt>
      <trkpt lat="48.68951" lon="1.79255">
        <ele>176</ele>
        <time>2015-06-14T09:27:39.000Z</time>
      </trkpt>
      <trkpt lat="48.68954" lon="1.7926">
        <ele>176</ele>
        <time>2015-06-14T09:27:42.000Z</time>
      </trkpt>
      <trkpt lat="48.68959" lon="1.79267">
        <ele>176</ele>
        <time>2015-06-14T09:27:46.000Z</time>
      </trkpt>
      <trkpt lat="48.68964" lon="1.79274">
        <ele>176</ele>
        <time>2015-06-14T09:27:50.000Z</time>
      </trkpt>
      <trkpt lat="48.6897" lon="1.79286">
        <ele>176</ele>
        <time>2015-06-14T09:27:56.000Z</time>
      </trkpt>
      <trkpt lat="48.6898" lon="1.79299">
        <ele>176</ele>
        <time>2015-06-14T09:28:05.000Z</time>
      </trkpt>
      <trkpt lat="48.68983" lon="1.79305">
        <ele>176</ele>
        <time>2015-06-14T09:28:09.000Z</time>
      </trkpt>
      <trkpt lat="48.68992" lon="1.79318">
        <ele>176</ele>
        <time>2015-06-14T09:28:17.000Z</time>
      </trkpt>
      <trkpt lat="48.68996" lon="1.79324">
        <ele>176</ele>
        <time>2015-06-14T09:28:21.000Z</time>
      </trkpt>
      <trkpt lat="48.69001" lon="1.79332">
        <ele>176</ele>
        <time>2015-06-14T09:28:26.000Z</time>
      </trkpt>
      <trkpt lat="48.69009" lon="1.79346">
        <ele>176.3</ele>
        <time>2015-06-14T09:28:35.000Z</time>
      </trkpt>
      <trkpt lat="48.69014" lon="1.79352">
        <ele>176.5</ele>
        <time>2015-06-14T09:28:39.000Z</time>
      </trkpt>
      <trkpt lat="48.69023" lon="1.79365">
        <ele>176.7</ele>
        <time>2015-06-14T09:28:46.000Z</time>
      </trkpt>
      <trkpt lat="48.69029" lon="1.79374">
        <ele>176.6</ele>
        <time>2015-06-14T09:28:52.000Z</time>
      </trkpt>
      <trkpt lat="48.69034" lon="1.79382">
        <ele>176.4</ele>
        <time>2015-06-14T09:28:58.000Z</time>
      </trkpt>
      <trkpt lat="48.69038" lon="1.79389">
        <ele>176.4</ele>
        <time>2015-06-14T09:29:03.000Z</time>
      </trkpt>
      <trkpt lat="48.69041" lon="1.79393">
        <ele>176.4</ele>
        <time>2015-06-14T09:29:06.000Z</time>
      </trkpt>
      <trkpt lat="48.69048" lon="1.79406">
        <ele>176.3</ele>
        <time>2015-06-14T09:29:13.000Z</time>
      </trkpt>
      <trkpt lat="48.69055" lon="1.79416">
        <ele>176</ele>
        <time>2015-06-14T09:29:19.000Z</time>
      </trkpt>
      <trkpt lat="48.69057" lon="1.79418">
        <ele>176</ele>
        <time>2015-06-14T09:29:20.000Z</time>
      </trkpt>
      <trkpt lat="48.69064" lon="1.79431">
        <ele>176</ele>
        <time>2015-06-14T09:29:28.000Z</time>
      </trkpt>
      <trkpt lat="48.69072" lon="1.79443">
        <ele>176</ele>
        <time>2015-06-14T09:29:36.000Z</time>
      </trkpt>
      <trkpt lat="48.69077" lon="1.79453">
        <ele>176</ele>
        <time>2015-06-14T09:29:41.000Z</time>
      </trkpt>
      <trkpt lat="48.69085" lon="1.79467">
        <ele>176</ele>
        <time>2015-06-14T09:29:49.000Z</time>
      </trkpt>
      <trkpt lat="48.69092" lon="1.79478">
        <ele>176</ele>
        <time>2015-06-14T09:29:56.000Z</time>
      </trkpt>
      <trkpt lat="48.69093" lon="1.79479">
        <ele>176</ele>
        <time>2015-06-14T09:29:57.000Z</time>
      </trkpt>
      <trkpt lat="48.69102" lon="1.79491">
        <ele>176</ele>
        <time>2015-06-14T09:30:04.000Z</time>
      </trkpt>
      <trkpt lat="48.6911" lon="1.79503">
        <ele>176</ele>
        <time>2015-06-14T09:30:11.000Z</time>
      </trkpt>
      <trkpt lat="48.69111" lon="1.79506">
        <ele>176</ele>
        <time>2015-06-14T09:30:13.000Z</time>
      </trkpt>
      <trkpt lat="48.69118" lon="1.79517">
        <ele>176.1</ele>
        <time>2015-06-14T09:30:21.000Z</time>
      </trkpt>
      <trkpt lat="48.69124" lon="1.79526">
        <ele>176</ele>
        <time>2015-06-14T09:30:27.000Z</time>
      </trkpt>
      <trkpt lat="48.69127" lon="1.79529">
        <ele>176</ele>
        <time>2015-06-14T09:30:30.000Z</time>
      </trkpt>
      <trkpt lat="48.69134" lon="1.79539">
        <ele>176</ele>
        <time>2015-06-14T09:30:37.000Z</time>
      </trkpt>
      <trkpt lat="48.69144" lon="1.7955">
        <ele>176</ele>
        <time>2015-06-14T09:30:45.000Z</time>
      </trkpt>
      <trkpt lat="48.6915" lon="1.79557">
        <ele>176</ele>
        <time>2015-06-14T09:30:49.000Z</time>
      </trkpt>
      <trkpt lat="48.69153" lon="1.79565">
        <ele>176</ele>
        <time>2015-06-14T09:30:53.000Z</time>
      </trkpt>
      <trkpt lat="48.69165" lon="1.79582">
        <ele>176</ele>
        <time>2015-06-14T09:31:03.000Z</time>
      </trkpt>
      <trkpt lat="48.69167" lon="1.79586">
        <ele>176</ele>
        <time>2015-06-14T09:31:05.000Z</time>
      </trkpt>
      <trkpt lat="48.69172" lon="1.79596">
        <ele>176</ele>
        <time>2015-06-14T09:31:12.000Z</time>
      </trkpt>
      <trkpt lat="48.6918" lon="1.7961">
        <ele>176</ele>
        <time>2015-06-14T09:31:21.000Z</time>
      </trkpt>
      <trkpt lat="48.69182" lon="1.79612">
        <ele>176</ele>
        <time>2015-06-14T09:31:23.000Z</time>
      </trkpt>
      <trkpt lat="48.69189" lon="1.79624">
        <ele>176</ele>
        <time>2015-06-14T09:31:30.000Z</time>
      </trkpt>
      <trkpt lat="48.69197" lon="1.79637">
        <ele>176</ele>
        <time>2015-06-14T09:31:39.000Z</time>
      </trkpt>
      <trkpt lat="48.69198" lon="1.79639">
        <ele>176</ele>
        <time>2015-06-14T09:31:40.000Z</time>
      </trkpt>
      <trkpt lat="48.69201" lon="1.79644">
        <ele>176</ele>
        <time>2015-06-14T09:31:44.000Z</time>
      </trkpt>
      <trkpt lat="48.69206" lon="1.79648">
        <ele>176</ele>
        <time>2015-06-14T09:31:56.000Z</time>
      </trkpt>
      <trkpt lat="48.69218" lon="1.79662">
        <ele>176</ele>
        <time>2015-06-14T09:32:24.000Z</time>
      </trkpt>
      <trkpt lat="48.6922" lon="1.7967">
        <ele>176</ele>
        <time>2015-06-14T09:32:28.000Z</time>
      </trkpt>
      <trkpt lat="48.69224" lon="1.79677">
        <ele>176</ele>
        <time>2015-06-14T09:32:32.000Z</time>
      </trkpt>
      <trkpt lat="48.69231" lon="1.7969">
        <ele>176</ele>
        <time>2015-06-14T09:32:41.000Z</time>
      </trkpt>
      <trkpt lat="48.69237" lon="1.79699">
        <ele>176</ele>
        <time>2015-06-14T09:32:47.000Z</time>
      </trkpt>
      <trkpt lat="48.69242" lon="1.79708">
        <ele>176</ele>
        <time>2015-06-14T09:32:54.000Z</time>
      </trkpt>
      <trkpt lat="48.6925" lon="1.79719">
        <ele>176</ele>
        <time>2015-06-14T09:33:01.000Z</time>
      </trkpt>
      <trkpt lat="48.69259" lon="1.79729">
        <ele>176.3</ele>
        <time>2015-06-14T09:33:08.000Z</time>
      </trkpt>
      <trkpt lat="48.69267" lon="1.7974">
        <ele>176.6</ele>
        <time>2015-06-14T09:33:16.000Z</time>
      </trkpt>
      <trkpt lat="48.69268" lon="1.79743">
        <ele>176.7</ele>
        <time>2015-06-14T09:33:18.000Z</time>
      </trkpt>
      <trkpt lat="48.69273" lon="1.79752">
        <ele>176.8</ele>
        <time>2015-06-14T09:33:25.000Z</time>
      </trkpt>
      <trkpt lat="48.69277" lon="1.79766">
        <ele>176.4</ele>
        <time>2015-06-14T09:33:33.000Z</time>
      </trkpt>
      <trkpt lat="48.69283" lon="1.79776">
        <ele>176.2</ele>
        <time>2015-06-14T09:33:38.000Z</time>
      </trkpt>
      <trkpt lat="48.69285" lon="1.79778">
        <ele>176.3</ele>
        <time>2015-06-14T09:33:40.000Z</time>
      </trkpt>
      <trkpt lat="48.69288" lon="1.79784">
        <ele>176.3</ele>
        <time>2015-06-14T09:33:43.000Z</time>
      </trkpt>
      <trkpt lat="48.69297" lon="1.79798">
        <ele>176.2</ele>
        <time>2015-06-14T09:33:52.000Z</time>
      </trkpt>
      <trkpt lat="48.693" lon="1.79801">
        <ele>176.1</ele>
        <time>2015-06-14T09:33:54.000Z</time>
      </trkpt>
      <trkpt lat="48.69309" lon="1.79812">
        <ele>176.1</ele>
        <time>2015-06-14T09:34:01.000Z</time>
      </trkpt>
      <trkpt lat="48.69316" lon="1.7982">
        <ele>176.2</ele>
        <time>2015-06-14T09:34:07.000Z</time>
      </trkpt>
      <trkpt lat="48.6932" lon="1.79829">
        <ele>176.1</ele>
        <time>2015-06-14T09:34:12.000Z</time>
      </trkpt>
      <trkpt lat="48.69328" lon="1.79844">
        <ele>176</ele>
        <time>2015-06-14T09:34:20.000Z</time>
      </trkpt>
      <trkpt lat="48.69336" lon="1.79855">
        <ele>176</ele>
        <time>2015-06-14T09:34:27.000Z</time>
      </trkpt>
      <trkpt lat="48.6934" lon="1.7986">
        <ele>176</ele>
        <time>2015-06-14T09:34:30.000Z</time>
      </trkpt>
      <trkpt lat="48.69346" lon="1.7987">
        <ele>176</ele>
        <time>2015-06-14T09:34:36.000Z</time>
      </trkpt>
      <trkpt lat="48.69349" lon="1.79876">
        <ele>176</ele>
        <time>2015-06-14T09:34:39.000Z</time>
      </trkpt>
      <trkpt lat="48.69357" lon="1.79891">
        <ele>176</ele>
        <time>2015-06-14T09:34:48.000Z</time>
      </trkpt>
      <trkpt lat="48.69359" lon="1.79905">
        <ele>176</ele>
        <time>2015-06-14T09:34:55.000Z</time>
      </trkpt>
      <trkpt lat="48.6935" lon="1.79914">
        <ele>176</ele>
        <time>2015-06-14T09:35:02.000Z</time>
      </trkpt>
      <trkpt lat="48.69342" lon="1.79919">
        <ele>176</ele>
        <time>2015-06-14T09:35:09.000Z</time>
      </trkpt>
      <trkpt lat="48.69332" lon="1.79923">
        <ele>176</ele>
        <time>2015-06-14T09:35:17.000Z</time>
      </trkpt>
      <trkpt lat="48.6932" lon="1.79928">
        <ele>176</ele>
        <time>2015-06-14T09:35:25.000Z</time>
      </trkpt>
      <trkpt lat="48.6931" lon="1.79933">
        <ele>176</ele>
        <time>2015-06-14T09:35:32.000Z</time>
      </trkpt>
      <trkpt lat="48.69296" lon="1.79942">
        <ele>176</ele>
        <time>2015-06-14T09:35:43.000Z</time>
      </trkpt>
      <trkpt lat="48.69283" lon="1.79947">
        <ele>176</ele>
        <time>2015-06-14T09:35:52.000Z</time>
      </trkpt>
      <trkpt lat="48.69275" lon="1.79949">
        <ele>176</ele>
        <time>2015-06-14T09:35:57.000Z</time>
      </trkpt>
      <trkpt lat="48.69263" lon="1.79958">
        <ele>176</ele>
        <time>2015-06-14T09:36:06.000Z</time>
      </trkpt>
      <trkpt lat="48.6925" lon="1.79963">
        <ele>176</ele>
        <time>2015-06-14T09:36:12.000Z</time>
      </trkpt>
      <trkpt lat="48.69233" lon="1.7997">
        <ele>176</ele>
        <time>2015-06-14T09:36:19.000Z</time>
      </trkpt>
      <trkpt lat="48.69219" lon="1.7998">
        <ele>176</ele>
        <time>2015-06-14T09:36:23.000Z</time>
      </trkpt>
      <trkpt lat="48.69191" lon="1.79994">
        <ele>176</ele>
        <time>2015-06-14T09:36:29.000Z</time>
      </trkpt>
      <trkpt lat="48.69162" lon="1.80007">
        <ele>176</ele>
        <time>2015-06-14T09:36:35.000Z</time>
      </trkpt>
      <trkpt lat="48.69157" lon="1.8001">
        <ele>176</ele>
        <time>2015-06-14T09:36:36.000Z</time>
      </trkpt>
      <trkpt lat="48.69142" lon="1.80016">
        <ele>176</ele>
        <time>2015-06-14T09:36:39.000Z</time>
      </trkpt>
      <trkpt lat="48.69112" lon="1.8003">
        <ele>176</ele>
        <time>2015-06-14T09:36:45.000Z</time>
      </trkpt>
      <trkpt lat="48.69102" lon="1.80035">
        <ele>176</ele>
        <time>2015-06-14T09:36:47.000Z</time>
      </trkpt>
      <trkpt lat="48.69077" lon="1.80048">
        <ele>176</ele>
        <time>2015-06-14T09:36:52.000Z</time>
      </trkpt>
      <trkpt lat="48.69053" lon="1.80061">
        <ele>176</ele>
        <time>2015-06-14T09:36:57.000Z</time>
      </trkpt>
      <trkpt lat="48.69013" lon="1.80078">
        <ele>176</ele>
        <time>2015-06-14T09:37:04.000Z</time>
      </trkpt>
      <trkpt lat="48.68979" lon="1.80093">
        <ele>176</ele>
        <time>2015-06-14T09:37:10.000Z</time>
      </trkpt>
      <trkpt lat="48.68969" lon="1.80097">
        <ele>176</ele>
        <time>2015-06-14T09:37:12.000Z</time>
      </trkpt>
      <trkpt lat="48.68944" lon="1.80105">
        <ele>176</ele>
        <time>2015-06-14T09:37:17.000Z</time>
      </trkpt>
      <trkpt lat="48.68928" lon="1.80113">
        <ele>176</ele>
        <time>2015-06-14T09:37:20.000Z</time>
      </trkpt>
      <trkpt lat="48.68893" lon="1.80131">
        <ele>176</ele>
        <time>2015-06-14T09:37:26.000Z</time>
      </trkpt>
      <trkpt lat="48.68882" lon="1.80137">
        <ele>176</ele>
        <time>2015-06-14T09:37:28.000Z</time>
      </trkpt>
      <trkpt lat="48.68856" lon="1.8015">
        <ele>176</ele>
        <time>2015-06-14T09:37:33.000Z</time>
      </trkpt>
      <trkpt lat="48.68841" lon="1.80155">
        <ele>176</ele>
        <time>2015-06-14T09:37:36.000Z</time>
      </trkpt>
      <trkpt lat="48.68828" lon="1.80161">
        <ele>176</ele>
        <time>2015-06-14T09:37:39.000Z</time>
      </trkpt>
      <trkpt lat="48.68804" lon="1.80174">
        <ele>176</ele>
        <time>2015-06-14T09:37:45.000Z</time>
      </trkpt>
      <trkpt lat="48.68775" lon="1.80188">
        <ele>176</ele>
        <time>2015-06-14T09:37:52.000Z</time>
      </trkpt>
      <trkpt lat="48.68753" lon="1.80196">
        <ele>176</ele>
        <time>2015-06-14T09:37:57.000Z</time>
      </trkpt>
      <trkpt lat="48.68739" lon="1.80201">
        <ele>176</ele>
        <time>2015-06-14T09:38:01.000Z</time>
      </trkpt>
      <trkpt lat="48.6871" lon="1.80212">
        <ele>176</ele>
        <time>2015-06-14T09:38:10.000Z</time>
      </trkpt>
      <trkpt lat="48.6869" lon="1.80221">
        <ele>176</ele>
        <time>2015-06-14T09:38:17.000Z</time>
      </trkpt>
      <trkpt lat="48.68671" lon="1.80228">
        <ele>176</ele>
        <time>2015-06-14T09:38:23.000Z</time>
      </trkpt>
      <trkpt lat="48.68653" lon="1.80237">
        <ele>176</ele>
        <time>2015-06-14T09:38:29.000Z</time>
      </trkpt>
      <trkpt lat="48.68638" lon="1.80244">
        <ele>176</ele>
        <time>2015-06-14T09:38:35.000Z</time>
      </trkpt>
      <trkpt lat="48.68622" lon="1.80251">
        <ele>176</ele>
        <time>2015-06-14T09:38:41.000Z</time>
      </trkpt>
      <trkpt lat="48.6861" lon="1.80252">
        <ele>176</ele>
        <time>2015-06-14T09:38:46.000Z</time>
      </trkpt>
      <trkpt lat="48.68601" lon="1.8026">
        <ele>176</ele>
        <time>2015-06-14T09:38:50.000Z</time>
      </trkpt>
      <trkpt lat="48.68583" lon="1.80269">
        <ele>176</ele>
        <time>2015-06-14T09:38:56.000Z</time>
      </trkpt>
      <trkpt lat="48.68566" lon="1.80278">
        <ele>176</ele>
        <time>2015-06-14T09:39:02.000Z</time>
      </trkpt>
      <trkpt lat="48.68546" lon="1.80287">
        <ele>176</ele>
        <time>2015-06-14T09:39:09.000Z</time>
      </trkpt>
      <trkpt lat="48.6853" lon="1.80294">
        <ele>176</ele>
        <time>2015-06-14T09:39:14.000Z</time>
      </trkpt>
      <trkpt lat="48.68507" lon="1.80302">
        <ele>176</ele>
        <time>2015-06-14T09:39:21.000Z</time>
      </trkpt>
      <trkpt lat="48.68488" lon="1.80309">
        <ele>176.1</ele>
        <time>2015-06-14T09:39:27.000Z</time>
      </trkpt>
      <trkpt lat="48.68472" lon="1.80316">
        <ele>176.4</ele>
        <time>2015-06-14T09:39:32.000Z</time>
      </trkpt>
      <trkpt lat="48.68453" lon="1.80326">
        <ele>176.2</ele>
        <time>2015-06-14T09:39:38.000Z</time>
      </trkpt>
      <trkpt lat="48.68437" lon="1.80334">
        <ele>176</ele>
        <time>2015-06-14T09:39:43.000Z</time>
      </trkpt>
      <trkpt lat="48.68417" lon="1.80343">
        <ele>176</ele>
        <time>2015-06-14T09:39:49.000Z</time>
      </trkpt>
      <trkpt lat="48.68397" lon="1.80351">
        <ele>176</ele>
        <time>2015-06-14T09:39:55.000Z</time>
      </trkpt>
      <trkpt lat="48.68378" lon="1.80361">
        <ele>176.4</ele>
        <time>2015-06-14T09:40:01.000Z</time>
      </trkpt>
      <trkpt lat="48.68352" lon="1.80371">
        <ele>176.4</ele>
        <time>2015-06-14T09:40:08.000Z</time>
      </trkpt>
      <trkpt lat="48.68332" lon="1.80378">
        <ele>176</ele>
        <time>2015-06-14T09:40:14.000Z</time>
      </trkpt>
      <trkpt lat="48.68318" lon="1.80386">
        <ele>176</ele>
        <time>2015-06-14T09:40:19.000Z</time>
      </trkpt>
      <trkpt lat="48.68299" lon="1.80396">
        <ele>176</ele>
        <time>2015-06-14T09:40:25.000Z</time>
      </trkpt>
      <trkpt lat="48.68276" lon="1.80408">
        <ele>175.9</ele>
        <time>2015-06-14T09:40:32.000Z</time>
      </trkpt>
      <trkpt lat="48.68259" lon="1.80415">
        <ele>175.4</ele>
        <time>2015-06-14T09:40:37.000Z</time>
      </trkpt>
      <trkpt lat="48.68242" lon="1.80422">
        <ele>175</ele>
        <time>2015-06-14T09:40:42.000Z</time>
      </trkpt>
      <trkpt lat="48.68222" lon="1.80431">
        <ele>175</ele>
        <time>2015-06-14T09:40:48.000Z</time>
      </trkpt>
      <trkpt lat="48.68192" lon="1.80442">
        <ele>175.1</ele>
        <time>2015-06-14T09:40:57.000Z</time>
      </trkpt>
      <trkpt lat="48.68165" lon="1.80455">
        <ele>175</ele>
        <time>2015-06-14T09:41:05.000Z</time>
      </trkpt>
      <trkpt lat="48.68139" lon="1.80468">
        <ele>175</ele>
        <time>2015-06-14T09:41:13.000Z</time>
      </trkpt>
      <trkpt lat="48.68112" lon="1.80481">
        <ele>175</ele>
        <time>2015-06-14T09:41:21.000Z</time>
      </trkpt>
      <trkpt lat="48.68099" lon="1.80487">
        <ele>174.6</ele>
        <time>2015-06-14T09:41:27.000Z</time>
      </trkpt>
      <trkpt lat="48.68092" lon="1.80492">
        <ele>174.3</ele>
        <time>2015-06-14T09:41:32.000Z</time>
      </trkpt>
      <trkpt lat="48.68091" lon="1.80493">
        <ele>174.3</ele>
        <time>2015-06-14T09:41:33.000Z</time>
      </trkpt>
      <trkpt lat="48.68086" lon="1.80506">
        <ele>174.3</ele>
        <time>2015-06-14T09:41:41.000Z</time>
      </trkpt>
      <trkpt lat="48.68078" lon="1.80515">
        <ele>174.5</ele>
        <time>2015-06-14T09:41:48.000Z</time>
      </trkpt>
      <trkpt lat="48.68073" lon="1.80523">
        <ele>174.8</ele>
        <time>2015-06-14T09:41:53.000Z</time>
      </trkpt>
      <trkpt lat="48.68067" lon="1.80533">
        <ele>175</ele>
        <time>2015-06-14T09:42:00.000Z</time>
      </trkpt>
      <trkpt lat="48.68066" lon="1.80534">
        <ele>175</ele>
        <time>2015-06-14T09:42:01.000Z</time>
      </trkpt>
      <trkpt lat="48.6806" lon="1.80544">
        <ele>175</ele>
        <time>2015-06-14T09:42:08.000Z</time>
      </trkpt>
      <trkpt lat="48.68059" lon="1.80551">
        <ele>175</ele>
        <time>2015-06-14T09:42:11.000Z</time>
      </trkpt>
      <trkpt lat="48.6806" lon="1.80565">
        <ele>175</ele>
        <time>2015-06-14T09:42:18.000Z</time>
      </trkpt>
      <trkpt lat="48.68062" lon="1.80578">
        <ele>175</ele>
        <time>2015-06-14T09:42:24.000Z</time>
      </trkpt>
      <trkpt lat="48.68064" lon="1.80589">
        <ele>175</ele>
        <time>2015-06-14T09:42:29.000Z</time>
      </trkpt>
      <trkpt lat="48.68071" lon="1.80601">
        <ele>175</ele>
        <time>2015-06-14T09:42:36.000Z</time>
      </trkpt>
      <trkpt lat="48.68073" lon="1.80603">
        <ele>175</ele>
        <time>2015-06-14T09:42:38.000Z</time>
      </trkpt>
      <trkpt lat="48.68087" lon="1.80609">
        <ele>175.1</ele>
        <time>2015-06-14T09:42:47.000Z</time>
      </trkpt>
      <trkpt lat="48.68098" lon="1.80613">
        <ele>175.5</ele>
        <time>2015-06-14T09:42:55.000Z</time>
      </trkpt>
      <trkpt lat="48.68102" lon="1.80615">
        <ele>175.7</ele>
        <time>2015-06-14T09:42:59.000Z</time>
      </trkpt>
      <trkpt lat="48.68112" lon="1.80621">
        <ele>176</ele>
        <time>2015-06-14T09:43:06.000Z</time>
      </trkpt>
      <trkpt lat="48.68115" lon="1.80621">
        <ele>176</ele>
        <time>2015-06-14T09:43:08.000Z</time>
      </trkpt>
      <trkpt lat="48.68123" lon="1.80622">
        <ele>176</ele>
        <time>2015-06-14T09:43:14.000Z</time>
      </trkpt>
      <trkpt lat="48.68131" lon="1.80625">
        <ele>176</ele>
        <time>2015-06-14T09:43:19.000Z</time>
      </trkpt>
      <trkpt lat="48.68142" lon="1.8063">
        <ele>176</ele>
        <time>2015-06-14T09:43:26.000Z</time>
      </trkpt>
      <trkpt lat="48.68151" lon="1.80632">
        <ele>176</ele>
        <time>2015-06-14T09:43:32.000Z</time>
      </trkpt>
      <trkpt lat="48.6816" lon="1.80634">
        <ele>176</ele>
        <time>2015-06-14T09:43:38.000Z</time>
      </trkpt>
      <trkpt lat="48.68165" lon="1.80636">
        <ele>176</ele>
        <time>2015-06-14T09:43:41.000Z</time>
      </trkpt>
      <trkpt lat="48.68171" lon="1.80637">
        <ele>176</ele>
        <time>2015-06-14T09:43:45.000Z</time>
      </trkpt>
      <trkpt lat="48.6818" lon="1.80641">
        <ele>176</ele>
        <time>2015-06-14T09:43:52.000Z</time>
      </trkpt>
      <trkpt lat="48.68186" lon="1.80643">
        <ele>176</ele>
        <time>2015-06-14T09:43:57.000Z</time>
      </trkpt>
      <trkpt lat="48.68195" lon="1.80646">
        <ele>176</ele>
        <time>2015-06-14T09:44:03.000Z</time>
      </trkpt>
      <trkpt lat="48.68198" lon="1.80647">
        <ele>175.9</ele>
        <time>2015-06-14T09:44:05.000Z</time>
      </trkpt>
      <trkpt lat="48.68207" lon="1.8065">
        <ele>175.7</ele>
        <time>2015-06-14T09:44:11.000Z</time>
      </trkpt>
      <trkpt lat="48.68214" lon="1.80652">
        <ele>175.6</ele>
        <time>2015-06-14T09:44:15.000Z</time>
      </trkpt>
      <trkpt lat="48.68223" lon="1.80655">
        <ele>175.6</ele>
        <time>2015-06-14T09:44:21.000Z</time>
      </trkpt>
      <trkpt lat="48.68231" lon="1.80658">
        <ele>175.6</ele>
        <time>2015-06-14T09:44:27.000Z</time>
      </trkpt>
      <trkpt lat="48.68241" lon="1.80659">
        <ele>175.4</ele>
        <time>2015-06-14T09:44:33.000Z</time>
      </trkpt>
      <trkpt lat="48.68253" lon="1.80664">
        <ele>175.2</ele>
        <time>2015-06-14T09:44:41.000Z</time>
      </trkpt>
      <trkpt lat="48.68255" lon="1.80665">
        <ele>175.2</ele>
        <time>2015-06-14T09:44:43.000Z</time>
      </trkpt>
      <trkpt lat="48.68263" lon="1.80668">
        <ele>175.5</ele>
        <time>2015-06-14T09:44:48.000Z</time>
      </trkpt>
      <trkpt lat="48.6827" lon="1.80671">
        <ele>175.7</ele>
        <time>2015-06-14T09:44:53.000Z</time>
      </trkpt>
      <trkpt lat="48.6828" lon="1.80674">
        <ele>176</ele>
        <time>2015-06-14T09:45:00.000Z</time>
      </trkpt>
      <trkpt lat="48.68293" lon="1.80679">
        <ele>176</ele>
        <time>2015-06-14T09:45:09.000Z</time>
      </trkpt>
      <trkpt lat="48.68298" lon="1.80683">
        <ele>176</ele>
        <time>2015-06-14T09:45:12.000Z</time>
      </trkpt>
      <trkpt lat="48.68305" lon="1.80683">
        <ele>176</ele>
        <time>2015-06-14T09:45:18.000Z</time>
      </trkpt>
      <trkpt lat="48.6831" lon="1.80683">
        <ele>176</ele>
        <time>2015-06-14T09:45:22.000Z</time>
      </trkpt>
      <trkpt lat="48.6832" lon="1.80686">
        <ele>176</ele>
        <time>2015-06-14T09:45:29.000Z</time>
      </trkpt>
      <trkpt lat="48.68323" lon="1.80687">
        <ele>176</ele>
        <time>2015-06-14T09:45:31.000Z</time>
      </trkpt>
      <trkpt lat="48.68331" lon="1.8069">
        <ele>176</ele>
        <time>2015-06-14T09:45:37.000Z</time>
      </trkpt>
      <trkpt lat="48.68332" lon="1.8069">
        <ele>176</ele>
        <time>2015-06-14T09:45:38.000Z</time>
      </trkpt>
      <trkpt lat="48.68336" lon="1.80694">
        <ele>176</ele>
        <time>2015-06-14T09:45:42.000Z</time>
      </trkpt>
      <trkpt lat="48.68339" lon="1.80695">
        <ele>176</ele>
        <time>2015-06-14T09:45:44.000Z</time>
      </trkpt>
      <trkpt lat="48.6835" lon="1.80698">
        <ele>176</ele>
        <time>2015-06-14T09:45:51.000Z</time>
      </trkpt>
      <trkpt lat="48.68358" lon="1.80701">
        <ele>176</ele>
        <time>2015-06-14T09:45:57.000Z</time>
      </trkpt>
      <trkpt lat="48.68369" lon="1.80703">
        <ele>176</ele>
        <time>2015-06-14T09:46:03.000Z</time>
      </trkpt>
      <trkpt lat="48.68379" lon="1.80705">
        <ele>176</ele>
        <time>2015-06-14T09:46:09.000Z</time>
      </trkpt>
      <trkpt lat="48.68392" lon="1.80707">
        <ele>176</ele>
        <time>2015-06-14T09:46:16.000Z</time>
      </trkpt>
      <trkpt lat="48.68403" lon="1.80712">
        <ele>176</ele>
        <time>2015-06-14T09:46:24.000Z</time>
      </trkpt>
      <trkpt lat="48.68407" lon="1.80713">
        <ele>176</ele>
        <time>2015-06-14T09:46:27.000Z</time>
      </trkpt>
      <trkpt lat="48.68415" lon="1.80717">
        <ele>176</ele>
        <time>2015-06-14T09:46:32.000Z</time>
      </trkpt>
      <trkpt lat="48.68425" lon="1.8072">
        <ele>176</ele>
        <time>2015-06-14T09:46:39.000Z</time>
      </trkpt>
      <trkpt lat="48.68436" lon="1.80723">
        <ele>176</ele>
        <time>2015-06-14T09:46:46.000Z</time>
      </trkpt>
      <trkpt lat="48.68442" lon="1.80725">
        <ele>176</ele>
        <time>2015-06-14T09:46:50.000Z</time>
      </trkpt>
      <trkpt lat="48.68455" lon="1.80726">
        <ele>176</ele>
        <time>2015-06-14T09:46:58.000Z</time>
      </trkpt>
      <trkpt lat="48.68465" lon="1.8073">
        <ele>176</ele>
        <time>2015-06-14T09:47:04.000Z</time>
      </trkpt>
      <trkpt lat="48.68473" lon="1.80733">
        <ele>176</ele>
        <time>2015-06-14T09:47:09.000Z</time>
      </trkpt>
      <trkpt lat="48.68477" lon="1.80736">
        <ele>176</ele>
        <time>2015-06-14T09:47:12.000Z</time>
      </trkpt>
      <trkpt lat="48.68482" lon="1.80737">
        <ele>176</ele>
        <time>2015-06-14T09:47:16.000Z</time>
      </trkpt>
      <trkpt lat="48.68488" lon="1.80737">
        <ele>176</ele>
        <time>2015-06-14T09:47:20.000Z</time>
      </trkpt>
      <trkpt lat="48.6849" lon="1.8074">
        <ele>176</ele>
        <time>2015-06-14T09:47:22.000Z</time>
      </trkpt>
      <trkpt lat="48.68496" lon="1.80745">
        <ele>176</ele>
        <time>2015-06-14T09:47:27.000Z</time>
      </trkpt>
      <trkpt lat="48.68507" lon="1.80749">
        <ele>176</ele>
        <time>2015-06-14T09:47:34.000Z</time>
      </trkpt>
      <trkpt lat="48.6851" lon="1.8075">
        <ele>176</ele>
        <time>2015-06-14T09:47:36.000Z</time>
      </trkpt>
      <trkpt lat="48.68517" lon="1.8075">
        <ele>176</ele>
        <time>2015-06-14T09:47:40.000Z</time>
      </trkpt>
      <trkpt lat="48.68529" lon="1.80756">
        <ele>176</ele>
        <time>2015-06-14T09:47:48.000Z</time>
      </trkpt>
      <trkpt lat="48.68537" lon="1.80758">
        <ele>176</ele>
        <time>2015-06-14T09:47:53.000Z</time>
      </trkpt>
      <trkpt lat="48.68548" lon="1.80757">
        <ele>176</ele>
        <time>2015-06-14T09:48:01.000Z</time>
      </trkpt>
      <trkpt lat="48.68555" lon="1.80759">
        <ele>176</ele>
        <time>2015-06-14T09:48:06.000Z</time>
      </trkpt>
      <trkpt lat="48.68559" lon="1.80764">
        <ele>175.9</ele>
        <time>2015-06-14T09:48:10.000Z</time>
      </trkpt>
      <trkpt lat="48.68572" lon="1.80767">
        <ele>175.4</ele>
        <time>2015-06-14T09:48:19.000Z</time>
      </trkpt>
      <trkpt lat="48.68577" lon="1.80769">
        <ele>175.2</ele>
        <time>2015-06-14T09:48:22.000Z</time>
      </trkpt>
      <trkpt lat="48.68588" lon="1.80775">
        <ele>175</ele>
        <time>2015-06-14T09:48:30.000Z</time>
      </trkpt>
      <trkpt lat="48.68594" lon="1.80776">
        <ele>175</ele>
        <time>2015-06-14T09:48:34.000Z</time>
      </trkpt>
      <trkpt lat="48.68601" lon="1.80777">
        <ele>175</ele>
        <time>2015-06-14T09:48:39.000Z</time>
      </trkpt>
      <trkpt lat="48.68613" lon="1.80779">
        <ele>174.9</ele>
        <time>2015-06-14T09:48:48.000Z</time>
      </trkpt>
      <trkpt lat="48.68622" lon="1.80781">
        <ele>174.6</ele>
        <time>2015-06-14T09:48:53.000Z</time>
      </trkpt>
      <trkpt lat="48.68633" lon="1.80783">
        <ele>174.2</ele>
        <time>2015-06-14T09:48:59.000Z</time>
      </trkpt>
      <trkpt lat="48.68636" lon="1.80782">
        <ele>174.1</ele>
        <time>2015-06-14T09:49:01.000Z</time>
      </trkpt>
      <trkpt lat="48.68646" lon="1.80789">
        <ele>174</ele>
        <time>2015-06-14T09:49:10.000Z</time>
      </trkpt>
      <trkpt lat="48.68656" lon="1.80789">
        <ele>174</ele>
        <time>2015-06-14T09:49:16.000Z</time>
      </trkpt>
      <trkpt lat="48.68657" lon="1.80789">
        <ele>174</ele>
        <time>2015-06-14T09:49:17.000Z</time>
      </trkpt>
      <trkpt lat="48.68666" lon="1.80795">
        <ele>174</ele>
        <time>2015-06-14T09:49:24.000Z</time>
      </trkpt>
      <trkpt lat="48.68673" lon="1.808">
        <ele>173.8</ele>
        <time>2015-06-14T09:49:29.000Z</time>
      </trkpt>
      <trkpt lat="48.68679" lon="1.80804">
        <ele>173.6</ele>
        <time>2015-06-14T09:49:34.000Z</time>
      </trkpt>
      <trkpt lat="48.6868" lon="1.80806">
        <ele>173.5</ele>
        <time>2015-06-14T09:49:36.000Z</time>
      </trkpt>
      <trkpt lat="48.68688" lon="1.80808">
        <ele>173.2</ele>
        <time>2015-06-14T09:49:42.000Z</time>
      </trkpt>
      <trkpt lat="48.68694" lon="1.80806">
        <ele>173</ele>
        <time>2015-06-14T09:49:48.000Z</time>
      </trkpt>
      <trkpt lat="48.687" lon="1.80806">
        <ele>173</ele>
        <time>2015-06-14T09:49:52.000Z</time>
      </trkpt>
      <trkpt lat="48.68699" lon="1.80804">
        <ele>173</ele>
        <time>2015-06-14T09:49:54.000Z</time>
      </trkpt>
      <trkpt lat="48.68707" lon="1.80799">
        <ele>173.1</ele>
        <time>2015-06-14T09:50:01.000Z</time>
      </trkpt>
      <trkpt lat="48.68712" lon="1.80805">
        <ele>173</ele>
        <time>2015-06-14T09:50:06.000Z</time>
      </trkpt>
      <trkpt lat="48.68725" lon="1.80808">
        <ele>173</ele>
        <time>2015-06-14T09:50:14.000Z</time>
      </trkpt>
      <trkpt lat="48.68736" lon="1.80812">
        <ele>173</ele>
        <time>2015-06-14T09:50:21.000Z</time>
      </trkpt>
      <trkpt lat="48.68744" lon="1.80815">
        <ele>173</ele>
        <time>2015-06-14T09:50:27.000Z</time>
      </trkpt>
      <trkpt lat="48.68752" lon="1.80817">
        <ele>173</ele>
        <time>2015-06-14T09:50:33.000Z</time>
      </trkpt>
      <trkpt lat="48.68764" lon="1.80829">
        <ele>173</ele>
        <time>2015-06-14T09:50:42.000Z</time>
      </trkpt>
      <trkpt lat="48.68773" lon="1.80829">
        <ele>173</ele>
        <time>2015-06-14T09:50:48.000Z</time>
      </trkpt>
      <trkpt lat="48.68783" lon="1.80831">
        <ele>173</ele>
        <time>2015-06-14T09:50:55.000Z</time>
      </trkpt>
      <trkpt lat="48.68789" lon="1.80832">
        <ele>173</ele>
        <time>2015-06-14T09:51:00.000Z</time>
      </trkpt>
      <trkpt lat="48.68794" lon="1.80835">
        <ele>173</ele>
        <time>2015-06-14T09:51:05.000Z</time>
      </trkpt>
      <trkpt lat="48.68805" lon="1.80835">
        <ele>173</ele>
        <time>2015-06-14T09:51:12.000Z</time>
      </trkpt>
      <trkpt lat="48.68814" lon="1.80835">
        <ele>173</ele>
        <time>2015-06-14T09:51:18.000Z</time>
      </trkpt>
      <trkpt lat="48.68824" lon="1.80836">
        <ele>173</ele>
        <time>2015-06-14T09:51:25.000Z</time>
      </trkpt>
      <trkpt lat="48.68826" lon="1.80838">
        <ele>173</ele>
        <time>2015-06-14T09:51:27.000Z</time>
      </trkpt>
      <trkpt lat="48.68837" lon="1.8084">
        <ele>173.1</ele>
        <time>2015-06-14T09:51:34.000Z</time>
      </trkpt>
      <trkpt lat="48.68847" lon="1.80846">
        <ele>173.5</ele>
        <time>2015-06-14T09:51:41.000Z</time>
      </trkpt>
      <trkpt lat="48.68855" lon="1.80848">
        <ele>173.8</ele>
        <time>2015-06-14T09:51:47.000Z</time>
      </trkpt>
      <trkpt lat="48.68861" lon="1.80847">
        <ele>174</ele>
        <time>2015-06-14T09:51:52.000Z</time>
      </trkpt>
      <trkpt lat="48.68868" lon="1.80853">
        <ele>174</ele>
        <time>2015-06-14T09:51:59.000Z</time>
      </trkpt>
      <trkpt lat="48.68875" lon="1.80854">
        <ele>174</ele>
        <time>2015-06-14T09:52:03.000Z</time>
      </trkpt>
      <trkpt lat="48.6888" lon="1.80855">
        <ele>174</ele>
        <time>2015-06-14T09:52:08.000Z</time>
      </trkpt>
      <trkpt lat="48.6889" lon="1.80857">
        <ele>174</ele>
        <time>2015-06-14T09:52:14.000Z</time>
      </trkpt>
      <trkpt lat="48.689" lon="1.80862">
        <ele>174</ele>
        <time>2015-06-14T09:52:21.000Z</time>
      </trkpt>
      <trkpt lat="48.68911" lon="1.80862">
        <ele>174</ele>
        <time>2015-06-14T09:52:27.000Z</time>
      </trkpt>
      <trkpt lat="48.68917" lon="1.80867">
        <ele>174</ele>
        <time>2015-06-14T09:52:32.000Z</time>
      </trkpt>
      <trkpt lat="48.68922" lon="1.80869">
        <ele>174.1</ele>
        <time>2015-06-14T09:52:36.000Z</time>
      </trkpt>
      <trkpt lat="48.6893" lon="1.80874">
        <ele>174.3</ele>
        <time>2015-06-14T09:52:42.000Z</time>
      </trkpt>
      <trkpt lat="48.68935" lon="1.80875">
        <ele>174.3</ele>
        <time>2015-06-14T09:52:45.000Z</time>
      </trkpt>
      <trkpt lat="48.68943" lon="1.80873">
        <ele>174.5</ele>
        <time>2015-06-14T09:52:52.000Z</time>
      </trkpt>
      <trkpt lat="48.68951" lon="1.80881">
        <ele>174.5</ele>
        <time>2015-06-14T09:52:58.000Z</time>
      </trkpt>
      <trkpt lat="48.68955" lon="1.80885">
        <ele>174.5</ele>
        <time>2015-06-14T09:53:01.000Z</time>
      </trkpt>
      <trkpt lat="48.68964" lon="1.80891">
        <ele>174.6</ele>
        <time>2015-06-14T09:53:07.000Z</time>
      </trkpt>
      <trkpt lat="48.68966" lon="1.80893">
        <ele>174.7</ele>
        <time>2015-06-14T09:53:08.000Z</time>
      </trkpt>
      <trkpt lat="48.68975" lon="1.80891">
        <ele>174.9</ele>
        <time>2015-06-14T09:53:14.000Z</time>
      </trkpt>
      <trkpt lat="48.6898" lon="1.80889">
        <ele>175</ele>
        <time>2015-06-14T09:53:18.000Z</time>
      </trkpt>
      <trkpt lat="48.6899" lon="1.80889">
        <ele>175</ele>
        <time>2015-06-14T09:53:24.000Z</time>
      </trkpt>
      <trkpt lat="48.69002" lon="1.80894">
        <ele>175</ele>
        <time>2015-06-14T09:53:32.000Z</time>
      </trkpt>
      <trkpt lat="48.69011" lon="1.80901">
        <ele>175</ele>
        <time>2015-06-14T09:53:39.000Z</time>
      </trkpt>
      <trkpt lat="48.6902" lon="1.80905">
        <ele>175</ele>
        <time>2015-06-14T09:53:45.000Z</time>
      </trkpt>
      <trkpt lat="48.69028" lon="1.80906">
        <ele>175</ele>
        <time>2015-06-14T09:53:51.000Z</time>
      </trkpt>
      <trkpt lat="48.69029" lon="1.80908">
        <ele>175</ele>
        <time>2015-06-14T09:53:56.000Z</time>
      </trkpt>
      <trkpt lat="48.69035" lon="1.80913">
        <ele>175</ele>
        <time>2015-06-14T09:54:34.000Z</time>
      </trkpt>
      <trkpt lat="48.69044" lon="1.80917">
        <ele>175</ele>
        <time>2015-06-14T09:54:40.000Z</time>
      </trkpt>
      <trkpt lat="48.69054" lon="1.80916">
        <ele>175</ele>
        <time>2015-06-14T09:54:45.000Z</time>
      </trkpt>
      <trkpt lat="48.69062" lon="1.8092">
        <ele>174.7</ele>
        <time>2015-06-14T09:54:51.000Z</time>
      </trkpt>
      <trkpt lat="48.69067" lon="1.80921">
        <ele>174.5</ele>
        <time>2015-06-14T09:54:54.000Z</time>
      </trkpt>
      <trkpt lat="48.69073" lon="1.80923">
        <ele>174.3</ele>
        <time>2015-06-14T09:54:59.000Z</time>
      </trkpt>
      <trkpt lat="48.69081" lon="1.80924">
        <ele>174.1</ele>
        <time>2015-06-14T09:55:04.000Z</time>
      </trkpt>
      <trkpt lat="48.69091" lon="1.80925">
        <ele>174</ele>
        <time>2015-06-14T09:55:10.000Z</time>
      </trkpt>
      <trkpt lat="48.69101" lon="1.80927">
        <ele>174</ele>
        <time>2015-06-14T09:55:18.000Z</time>
      </trkpt>
      <trkpt lat="48.69103" lon="1.80927">
        <ele>174</ele>
        <time>2015-06-14T09:55:19.000Z</time>
      </trkpt>
      <trkpt lat="48.69109" lon="1.80925">
        <ele>174</ele>
        <time>2015-06-14T09:55:23.000Z</time>
      </trkpt>
      <trkpt lat="48.69117" lon="1.80928">
        <ele>174</ele>
        <time>2015-06-14T09:55:29.000Z</time>
      </trkpt>
      <trkpt lat="48.69118" lon="1.80929">
        <ele>174</ele>
        <time>2015-06-14T09:55:30.000Z</time>
      </trkpt>
      <trkpt lat="48.69122" lon="1.80934">
        <ele>174</ele>
        <time>2015-06-14T09:55:34.000Z</time>
      </trkpt>
      <trkpt lat="48.69132" lon="1.80943">
        <ele>174</ele>
        <time>2015-06-14T09:55:41.000Z</time>
      </trkpt>
      <trkpt lat="48.69134" lon="1.80943">
        <ele>174</ele>
        <time>2015-06-14T09:55:43.000Z</time>
      </trkpt>
      <trkpt lat="48.69144" lon="1.80943">
        <ele>174</ele>
        <time>2015-06-14T09:55:50.000Z</time>
      </trkpt>
      <trkpt lat="48.69148" lon="1.80943">
        <ele>174</ele>
        <time>2015-06-14T09:55:54.000Z</time>
      </trkpt>
      <trkpt lat="48.69152" lon="1.80937">
        <ele>174</ele>
        <time>2015-06-14T09:56:00.000Z</time>
      </trkpt>
      <trkpt lat="48.6916" lon="1.80933">
        <ele>174</ele>
        <time>2015-06-14T09:56:05.000Z</time>
      </trkpt>
      <trkpt lat="48.69164" lon="1.8093">
        <ele>174</ele>
        <time>2015-06-14T09:56:08.000Z</time>
      </trkpt>
      <trkpt lat="48.69169" lon="1.80928">
        <ele>174</ele>
        <time>2015-06-14T09:56:12.000Z</time>
      </trkpt>
      <trkpt lat="48.69177" lon="1.8092">
        <ele>174</ele>
        <time>2015-06-14T09:56:19.000Z</time>
      </trkpt>
      <trkpt lat="48.6918" lon="1.80921">
        <ele>174</ele>
        <time>2015-06-14T09:56:21.000Z</time>
      </trkpt>
      <trkpt lat="48.69184" lon="1.80923">
        <ele>174</ele>
        <time>2015-06-14T09:56:27.000Z</time>
      </trkpt>
      <trkpt lat="48.69187" lon="1.80919">
        <ele>174</ele>
        <time>2015-06-14T09:56:33.000Z</time>
      </trkpt>
      <trkpt lat="48.69191" lon="1.80916">
        <ele>174</ele>
        <time>2015-06-14T09:56:35.000Z</time>
      </trkpt>
      <trkpt lat="48.69201" lon="1.80907">
        <ele>174</ele>
        <time>2015-06-14T09:56:43.000Z</time>
      </trkpt>
      <trkpt lat="48.69206" lon="1.80904">
        <ele>174</ele>
        <time>2015-06-14T09:56:46.000Z</time>
      </trkpt>
      <trkpt lat="48.69212" lon="1.80896">
        <ele>174</ele>
        <time>2015-06-14T09:56:52.000Z</time>
      </trkpt>
      <trkpt lat="48.69213" lon="1.80896">
        <ele>174</ele>
        <time>2015-06-14T09:56:53.000Z</time>
      </trkpt>
      <trkpt lat="48.69219" lon="1.80888">
        <ele>174</ele>
        <time>2015-06-14T09:56:59.000Z</time>
      </trkpt>
      <trkpt lat="48.69229" lon="1.80881">
        <ele>174.1</ele>
        <time>2015-06-14T09:57:06.000Z</time>
      </trkpt>
      <trkpt lat="48.69237" lon="1.80873">
        <ele>174.3</ele>
        <time>2015-06-14T09:57:13.000Z</time>
      </trkpt>
      <trkpt lat="48.69244" lon="1.80868">
        <ele>174.6</ele>
        <time>2015-06-14T09:57:19.000Z</time>
      </trkpt>
      <trkpt lat="48.69252" lon="1.80862">
        <ele>175</ele>
        <time>2015-06-14T09:57:25.000Z</time>
      </trkpt>
      <trkpt lat="48.69262" lon="1.80855">
        <ele>175</ele>
        <time>2015-06-14T09:57:32.000Z</time>
      </trkpt>
      <trkpt lat="48.69263" lon="1.80854">
        <ele>175</ele>
        <time>2015-06-14T09:57:33.000Z</time>
      </trkpt>
      <trkpt lat="48.69268" lon="1.80848">
        <ele>175</ele>
        <time>2015-06-14T09:57:38.000Z</time>
      </trkpt>
      <trkpt lat="48.69276" lon="1.80837">
        <ele>175</ele>
        <time>2015-06-14T09:57:45.000Z</time>
      </trkpt>
      <trkpt lat="48.69287" lon="1.80825">
        <ele>175</ele>
        <time>2015-06-14T09:57:50.000Z</time>
      </trkpt>
      <trkpt lat="48.69297" lon="1.80814">
        <ele>175</ele>
        <time>2015-06-14T09:57:54.000Z</time>
      </trkpt>
      <trkpt lat="48.69307" lon="1.80803">
        <ele>175</ele>
        <time>2015-06-14T09:57:58.000Z</time>
      </trkpt>
      <trkpt lat="48.69316" lon="1.80792">
        <ele>175</ele>
        <time>2015-06-14T09:58:02.000Z</time>
      </trkpt>
      <trkpt lat="48.69332" lon="1.80776">
        <ele>175</ele>
        <time>2015-06-14T09:58:08.000Z</time>
      </trkpt>
      <trkpt lat="48.69344" lon="1.80765">
        <ele>175</ele>
        <time>2015-06-14T09:58:12.000Z</time>
      </trkpt>
      <trkpt lat="48.69356" lon="1.80748">
        <ele>175</ele>
        <time>2015-06-14T09:58:17.000Z</time>
      </trkpt>
      <trkpt lat="48.69371" lon="1.80731">
        <ele>175</ele>
        <time>2015-06-14T09:58:22.000Z</time>
      </trkpt>
      <trkpt lat="48.69391" lon="1.8071">
        <ele>175</ele>
        <time>2015-06-14T09:58:29.000Z</time>
      </trkpt>
      <trkpt lat="48.69415" lon="1.80687">
        <ele>175.3</ele>
        <time>2015-06-14T09:58:37.000Z</time>
      </trkpt>
      <trkpt lat="48.69433" lon="1.80683">
        <ele>175.4</ele>
        <time>2015-06-14T09:58:43.000Z</time>
      </trkpt>
      <trkpt lat="48.6945" lon="1.80689">
        <ele>175.2</ele>
        <time>2015-06-14T09:58:48.000Z</time>
      </trkpt>
      <trkpt lat="48.69469" lon="1.80689">
        <ele>175.2</ele>
        <time>2015-06-14T09:58:54.000Z</time>
      </trkpt>
      <trkpt lat="48.69482" lon="1.80687">
        <ele>175.2</ele>
        <time>2015-06-14T09:58:58.000Z</time>
      </trkpt>
      <trkpt lat="48.69499" lon="1.80669">
        <ele>175</ele>
        <time>2015-06-14T09:59:04.000Z</time>
      </trkpt>
      <trkpt lat="48.69507" lon="1.80645">
        <ele>175.6</ele>
        <time>2015-06-14T09:59:09.000Z</time>
      </trkpt>
      <trkpt lat="48.6952" lon="1.80619">
        <ele>175.3</ele>
        <time>2015-06-14T09:59:15.000Z</time>
      </trkpt>
      <trkpt lat="48.69536" lon="1.80589">
        <ele>175</ele>
        <time>2015-06-14T09:59:22.000Z</time>
      </trkpt>
      <trkpt lat="48.69558" lon="1.80571">
        <ele>175</ele>
        <time>2015-06-14T09:59:29.000Z</time>
      </trkpt>
      <trkpt lat="48.69579" lon="1.80558">
        <ele>175</ele>
        <time>2015-06-14T09:59:36.000Z</time>
      </trkpt>
      <trkpt lat="48.69594" lon="1.80549">
        <ele>175.1</ele>
        <time>2015-06-14T09:59:41.000Z</time>
      </trkpt>
      <trkpt lat="48.69612" lon="1.80536">
        <ele>175.7</ele>
        <time>2015-06-14T09:59:47.000Z</time>
      </trkpt>
      <trkpt lat="48.69633" lon="1.80519">
        <ele>176</ele>
        <time>2015-06-14T09:59:54.000Z</time>
      </trkpt>
      <trkpt lat="48.69649" lon="1.80506">
        <ele>176</ele>
        <time>2015-06-14T10:00:01.000Z</time>
      </trkpt>
      <trkpt lat="48.69659" lon="1.80497">
        <ele>176</ele>
        <time>2015-06-14T10:00:09.000Z</time>
      </trkpt>
      <trkpt lat="48.69671" lon="1.80483">
        <ele>176</ele>
        <time>2015-06-14T10:00:19.000Z</time>
      </trkpt>
      <trkpt lat="48.6968" lon="1.80471">
        <ele>176</ele>
        <time>2015-06-14T10:00:27.000Z</time>
      </trkpt>
      <trkpt lat="48.69687" lon="1.80457">
        <ele>176</ele>
        <time>2015-06-14T10:00:35.000Z</time>
      </trkpt>
      <trkpt lat="48.69697" lon="1.80441">
        <ele>176</ele>
        <time>2015-06-14T10:00:45.000Z</time>
      </trkpt>
      <trkpt lat="48.69701" lon="1.80432">
        <ele>176</ele>
        <time>2015-06-14T10:00:52.000Z</time>
      </trkpt>
      <trkpt lat="48.69705" lon="1.80419">
        <ele>176</ele>
        <time>2015-06-14T10:00:59.000Z</time>
      </trkpt>
      <trkpt lat="48.69708" lon="1.80418">
        <ele>176</ele>
        <time>2015-06-14T10:01:01.000Z</time>
      </trkpt>
      <trkpt lat="48.6972" lon="1.80413">
        <ele>176</ele>
        <time>2015-06-14T10:01:10.000Z</time>
      </trkpt>
      <trkpt lat="48.69726" lon="1.80404">
        <ele>176</ele>
        <time>2015-06-14T10:01:15.000Z</time>
      </trkpt>
      <trkpt lat="48.69733" lon="1.80395">
        <ele>176</ele>
        <time>2015-06-14T10:01:21.000Z</time>
      </trkpt>
      <trkpt lat="48.69741" lon="1.80387">
        <ele>176</ele>
        <time>2015-06-14T10:01:27.000Z</time>
      </trkpt>
      <trkpt lat="48.69748" lon="1.80376">
        <ele>176</ele>
        <time>2015-06-14T10:01:34.000Z</time>
      </trkpt>
      <trkpt lat="48.69756" lon="1.80367">
        <ele>176</ele>
        <time>2015-06-14T10:01:41.000Z</time>
      </trkpt>
      <trkpt lat="48.69763" lon="1.80358">
        <ele>176</ele>
        <time>2015-06-14T10:01:47.000Z</time>
      </trkpt>
      <trkpt lat="48.69771" lon="1.80346">
        <ele>176</ele>
        <time>2015-06-14T10:01:54.000Z</time>
      </trkpt>
      <trkpt lat="48.6978" lon="1.80334">
        <ele>176</ele>
        <time>2015-06-14T10:02:01.000Z</time>
      </trkpt>
      <trkpt lat="48.69785" lon="1.80325">
        <ele>176</ele>
        <time>2015-06-14T10:02:05.000Z</time>
      </trkpt>
      <trkpt lat="48.69791" lon="1.80314">
        <ele>176</ele>
        <time>2015-06-14T10:02:10.000Z</time>
      </trkpt>
      <trkpt lat="48.698" lon="1.80303">
        <ele>176</ele>
        <time>2015-06-14T10:02:18.000Z</time>
      </trkpt>
      <trkpt lat="48.69808" lon="1.80292">
        <ele>176</ele>
        <time>2015-06-14T10:02:25.000Z</time>
      </trkpt>
      <trkpt lat="48.69814" lon="1.80284">
        <ele>176</ele>
        <time>2015-06-14T10:02:30.000Z</time>
      </trkpt>
      <trkpt lat="48.69822" lon="1.80271">
        <ele>176</ele>
        <time>2015-06-14T10:02:37.000Z</time>
      </trkpt>
      <trkpt lat="48.69827" lon="1.80263">
        <ele>176</ele>
        <time>2015-06-14T10:02:41.000Z</time>
      </trkpt>
      <trkpt lat="48.69832" lon="1.80259">
        <ele>176</ele>
        <time>2015-06-14T10:02:44.000Z</time>
      </trkpt>
      <trkpt lat="48.69837" lon="1.80252">
        <ele>175.9</ele>
        <time>2015-06-14T10:02:49.000Z</time>
      </trkpt>
      <trkpt lat="48.69838" lon="1.8025">
        <ele>175.8</ele>
        <time>2015-06-14T10:02:51.000Z</time>
      </trkpt>
      <trkpt lat="48.69846" lon="1.80239">
        <ele>175.3</ele>
        <time>2015-06-14T10:02:58.000Z</time>
      </trkpt>
      <trkpt lat="48.69852" lon="1.8023">
        <ele>175.1</ele>
        <time>2015-06-14T10:03:03.000Z</time>
      </trkpt>
      <trkpt lat="48.69858" lon="1.80221">
        <ele>175</ele>
        <time>2015-06-14T10:03:08.000Z</time>
      </trkpt>
      <trkpt lat="48.69867" lon="1.80208">
        <ele>175.1</ele>
        <time>2015-06-14T10:03:16.000Z</time>
      </trkpt>
      <trkpt lat="48.69874" lon="1.80198">
        <ele>175.4</ele>
        <time>2015-06-14T10:03:23.000Z</time>
      </trkpt>
      <trkpt lat="48.69881" lon="1.80193">
        <ele>175.7</ele>
        <time>2015-06-14T10:03:29.000Z</time>
      </trkpt>
      <trkpt lat="48.69888" lon="1.80184">
        <ele>176</ele>
        <time>2015-06-14T10:03:35.000Z</time>
      </trkpt>
      <trkpt lat="48.69893" lon="1.80177">
        <ele>175.9</ele>
        <time>2015-06-14T10:03:40.000Z</time>
      </trkpt>
      <trkpt lat="48.69899" lon="1.80166">
        <ele>176</ele>
        <time>2015-06-14T10:03:46.000Z</time>
      </trkpt>
      <trkpt lat="48.69902" lon="1.80163">
        <ele>176</ele>
        <time>2015-06-14T10:03:48.000Z</time>
      </trkpt>
      <trkpt lat="48.69908" lon="1.80159">
        <ele>176</ele>
        <time>2015-06-14T10:03:52.000Z</time>
      </trkpt>
      <trkpt lat="48.69917" lon="1.80146">
        <ele>176</ele>
        <time>2015-06-14T10:03:59.000Z</time>
      </trkpt>
      <trkpt lat="48.69918" lon="1.80142">
        <ele>175.9</ele>
        <time>2015-06-14T10:04:01.000Z</time>
      </trkpt>
      <trkpt lat="48.69925" lon="1.80132">
        <ele>175.8</ele>
        <time>2015-06-14T10:04:07.000Z</time>
      </trkpt>
      <trkpt lat="48.69933" lon="1.80123">
        <ele>175.7</ele>
        <time>2015-06-14T10:04:13.000Z</time>
      </trkpt>
      <trkpt lat="48.6994" lon="1.80111">
        <ele>176</ele>
        <time>2015-06-14T10:04:19.000Z</time>
      </trkpt>
      <trkpt lat="48.69947" lon="1.80102">
        <ele>175.9</ele>
        <time>2015-06-14T10:04:24.000Z</time>
      </trkpt>
      <trkpt lat="48.6995" lon="1.80094">
        <ele>175.9</ele>
        <time>2015-06-14T10:04:28.000Z</time>
      </trkpt>
      <trkpt lat="48.69954" lon="1.80088">
        <ele>175.9</ele>
        <time>2015-06-14T10:04:32.000Z</time>
      </trkpt>
      <trkpt lat="48.69958" lon="1.80076">
        <ele>176</ele>
        <time>2015-06-14T10:04:39.000Z</time>
      </trkpt>
      <trkpt lat="48.69963" lon="1.8007">
        <ele>176</ele>
        <time>2015-06-14T10:04:42.000Z</time>
      </trkpt>
      <trkpt lat="48.69974" lon="1.80059">
        <ele>176</ele>
        <time>2015-06-14T10:04:49.000Z</time>
      </trkpt>
      <trkpt lat="48.69982" lon="1.80054">
        <ele>176</ele>
        <time>2015-06-14T10:04:54.000Z</time>
      </trkpt>
      <trkpt lat="48.69987" lon="1.80049">
        <ele>176</ele>
        <time>2015-06-14T10:04:59.000Z</time>
      </trkpt>
      <trkpt lat="48.69993" lon="1.80042">
        <ele>176</ele>
        <time>2015-06-14T10:05:05.000Z</time>
      </trkpt>
      <trkpt lat="48.69998" lon="1.80038">
        <ele>176</ele>
        <time>2015-06-14T10:05:10.000Z</time>
      </trkpt>
      <trkpt lat="48.70005" lon="1.80032">
        <ele>175.8</ele>
        <time>2015-06-14T10:05:15.000Z</time>
      </trkpt>
      <trkpt lat="48.7001" lon="1.80023">
        <ele>175.7</ele>
        <time>2015-06-14T10:05:21.000Z</time>
      </trkpt>
      <trkpt lat="48.70012" lon="1.80018">
        <ele>175.7</ele>
        <time>2015-06-14T10:05:23.000Z</time>
      </trkpt>
      <trkpt lat="48.7002" lon="1.80009">
        <ele>175.8</ele>
        <time>2015-06-14T10:05:30.000Z</time>
      </trkpt>
      <trkpt lat="48.70021" lon="1.80008">
        <ele>175.8</ele>
        <time>2015-06-14T10:05:31.000Z</time>
      </trkpt>
      <trkpt lat="48.7003" lon="1.79995">
        <ele>175.9</ele>
        <time>2015-06-14T10:05:38.000Z</time>
      </trkpt>
      <trkpt lat="48.70031" lon="1.79993">
        <ele>175.9</ele>
        <time>2015-06-14T10:05:39.000Z</time>
      </trkpt>
      <trkpt lat="48.70036" lon="1.79985">
        <ele>175.9</ele>
        <time>2015-06-14T10:05:45.000Z</time>
      </trkpt>
      <trkpt lat="48.70044" lon="1.79974">
        <ele>176</ele>
        <time>2015-06-14T10:05:52.000Z</time>
      </trkpt>
      <trkpt lat="48.7005" lon="1.79964">
        <ele>176</ele>
        <time>2015-06-14T10:05:58.000Z</time>
      </trkpt>
      <trkpt lat="48.70055" lon="1.7995">
        <ele>176</ele>
        <time>2015-06-14T10:06:05.000Z</time>
      </trkpt>
      <trkpt lat="48.7006" lon="1.79939">
        <ele>176</ele>
        <time>2015-06-14T10:06:11.000Z</time>
      </trkpt>
      <trkpt lat="48.70066" lon="1.79926">
        <ele>176</ele>
        <time>2015-06-14T10:06:17.000Z</time>
      </trkpt>
      <trkpt lat="48.70071" lon="1.79914">
        <ele>176</ele>
        <time>2015-06-14T10:06:23.000Z</time>
      </trkpt>
      <trkpt lat="48.70078" lon="1.79904">
        <ele>176</ele>
        <time>2015-06-14T10:06:29.000Z</time>
      </trkpt>
      <trkpt lat="48.70085" lon="1.79895">
        <ele>176</ele>
        <time>2015-06-14T10:06:36.000Z</time>
      </trkpt>
      <trkpt lat="48.70093" lon="1.79885">
        <ele>176</ele>
        <time>2015-06-14T10:06:43.000Z</time>
      </trkpt>
      <trkpt lat="48.701" lon="1.79875">
        <ele>176</ele>
        <time>2015-06-14T10:06:50.000Z</time>
      </trkpt>
      <trkpt lat="48.70108" lon="1.79862">
        <ele>176</ele>
        <time>2015-06-14T10:06:59.000Z</time>
      </trkpt>
      <trkpt lat="48.70112" lon="1.79853">
        <ele>176</ele>
        <time>2015-06-14T10:07:04.000Z</time>
      </trkpt>
      <trkpt lat="48.7012" lon="1.79838">
        <ele>176</ele>
        <time>2015-06-14T10:07:12.000Z</time>
      </trkpt>
      <trkpt lat="48.70124" lon="1.79826">
        <ele>176</ele>
        <time>2015-06-14T10:07:18.000Z</time>
      </trkpt>
      <trkpt lat="48.70127" lon="1.79822">
        <ele>176</ele>
        <time>2015-06-14T10:07:21.000Z</time>
      </trkpt>
      <trkpt lat="48.70144" lon="1.7981">
        <ele>176</ele>
        <time>2015-06-14T10:07:28.000Z</time>
      </trkpt>
      <trkpt lat="48.70147" lon="1.79804">
        <ele>176</ele>
        <time>2015-06-14T10:07:31.000Z</time>
      </trkpt>
      <trkpt lat="48.70148" lon="1.79799">
        <ele>176.2</ele>
        <time>2015-06-14T10:07:34.000Z</time>
      </trkpt>
      <trkpt lat="48.70152" lon="1.79789">
        <ele>176.3</ele>
        <time>2015-06-14T10:07:40.000Z</time>
      </trkpt>
      <trkpt lat="48.70157" lon="1.79769">
        <ele>176.3</ele>
        <time>2015-06-14T10:07:49.000Z</time>
      </trkpt>
      <trkpt lat="48.7016" lon="1.79759">
        <ele>176.2</ele>
        <time>2015-06-14T10:07:55.000Z</time>
      </trkpt>
      <trkpt lat="48.70166" lon="1.79747">
        <ele>176.1</ele>
        <time>2015-06-14T10:08:03.000Z</time>
      </trkpt>
      <trkpt lat="48.70172" lon="1.79739">
        <ele>176.4</ele>
        <time>2015-06-14T10:08:09.000Z</time>
      </trkpt>
      <trkpt lat="48.70176" lon="1.79734">
        <ele>176.6</ele>
        <time>2015-06-14T10:08:12.000Z</time>
      </trkpt>
      <trkpt lat="48.70184" lon="1.79723">
        <ele>177</ele>
        <time>2015-06-14T10:08:20.000Z</time>
      </trkpt>
      <trkpt lat="48.70189" lon="1.79716">
        <ele>177</ele>
        <time>2015-06-14T10:08:25.000Z</time>
      </trkpt>
      <trkpt lat="48.70195" lon="1.79708">
        <ele>177</ele>
        <time>2015-06-14T10:08:31.000Z</time>
      </trkpt>
      <trkpt lat="48.70202" lon="1.79701">
        <ele>176.9</ele>
        <time>2015-06-14T10:08:37.000Z</time>
      </trkpt>
      <trkpt lat="48.70207" lon="1.79696">
        <ele>177</ele>
        <time>2015-06-14T10:08:42.000Z</time>
      </trkpt>
      <trkpt lat="48.70215" lon="1.7969">
        <ele>177</ele>
        <time>2015-06-14T10:08:48.000Z</time>
      </trkpt>
      <trkpt lat="48.70219" lon="1.79687">
        <ele>177</ele>
        <time>2015-06-14T10:08:51.000Z</time>
      </trkpt>
      <trkpt lat="48.70227" lon="1.79677">
        <ele>176.9</ele>
        <time>2015-06-14T10:08:58.000Z</time>
      </trkpt>
      <trkpt lat="48.70235" lon="1.79671">
        <ele>176.9</ele>
        <time>2015-06-14T10:09:03.000Z</time>
      </trkpt>
      <trkpt lat="48.70238" lon="1.79669">
        <ele>176.9</ele>
        <time>2015-06-14T10:09:05.000Z</time>
      </trkpt>
      <trkpt lat="48.70244" lon="1.79665">
        <ele>177</ele>
        <time>2015-06-14T10:09:10.000Z</time>
      </trkpt>
      <trkpt lat="48.70253" lon="1.79658">
        <ele>176.9</ele>
        <time>2015-06-14T10:09:17.000Z</time>
      </trkpt>
      <trkpt lat="48.70259" lon="1.79652">
        <ele>176.7</ele>
        <time>2015-06-14T10:09:22.000Z</time>
      </trkpt>
      <trkpt lat="48.70263" lon="1.7965">
        <ele>176.5</ele>
        <time>2015-06-14T10:09:25.000Z</time>
      </trkpt>
      <trkpt lat="48.70273" lon="1.79645">
        <ele>176.2</ele>
        <time>2015-06-14T10:09:33.000Z</time>
      </trkpt>
      <trkpt lat="48.70281" lon="1.79643">
        <ele>176</ele>
        <time>2015-06-14T10:09:38.000Z</time>
      </trkpt>
      <trkpt lat="48.70282" lon="1.79642">
        <ele>176</ele>
        <time>2015-06-14T10:09:39.000Z</time>
      </trkpt>
      <trkpt lat="48.70287" lon="1.79638">
        <ele>176</ele>
        <time>2015-06-14T10:09:43.000Z</time>
      </trkpt>
      <trkpt lat="48.7029" lon="1.79634">
        <ele>176.1</ele>
        <time>2015-06-14T10:09:47.000Z</time>
      </trkpt>
      <trkpt lat="48.70289" lon="1.7963">
        <ele>176.2</ele>
        <time>2015-06-14T10:09:52.000Z</time>
      </trkpt>
      <trkpt lat="48.70281" lon="1.79606">
        <ele>176.9</ele>
        <time>2015-06-14T10:10:01.000Z</time>
      </trkpt>
      <trkpt lat="48.7028" lon="1.79595">
        <ele>177</ele>
        <time>2015-06-14T10:10:06.000Z</time>
      </trkpt>
      <trkpt lat="48.70278" lon="1.79575">
        <ele>177</ele>
        <time>2015-06-14T10:10:11.000Z</time>
      </trkpt>
      <trkpt lat="48.70276" lon="1.79539">
        <ele>177.6</ele>
        <time>2015-06-14T10:10:17.000Z</time>
      </trkpt>
      <trkpt lat="48.7028" lon="1.7952">
        <ele>177.9</ele>
        <time>2015-06-14T10:10:20.000Z</time>
      </trkpt>
      <trkpt lat="48.70276" lon="1.79493">
        <ele>178</ele>
        <time>2015-06-14T10:10:25.000Z</time>
      </trkpt>
      <trkpt lat="48.70274" lon="1.7947">
        <ele>178</ele>
        <time>2015-06-14T10:10:30.000Z</time>
      </trkpt>
      <trkpt lat="48.70273" lon="1.79434">
        <ele>178</ele>
        <time>2015-06-14T10:10:37.000Z</time>
      </trkpt>
      <trkpt lat="48.70273" lon="1.79415">
        <ele>178</ele>
        <time>2015-06-14T10:10:41.000Z</time>
      </trkpt>
      <trkpt lat="48.70271" lon="1.7939">
        <ele>178</ele>
        <time>2015-06-14T10:10:46.000Z</time>
      </trkpt>
      <trkpt lat="48.70269" lon="1.79371">
        <ele>178</ele>
        <time>2015-06-14T10:10:50.000Z</time>
      </trkpt>
      <trkpt lat="48.70268" lon="1.79343">
        <ele>178</ele>
        <time>2015-06-14T10:10:55.000Z</time>
      </trkpt>
      <trkpt lat="48.70265" lon="1.79313">
        <ele>178.3</ele>
        <time>2015-06-14T10:11:01.000Z</time>
      </trkpt>
      <trkpt lat="48.70264" lon="1.79292">
        <ele>178.5</ele>
        <time>2015-06-14T10:11:06.000Z</time>
      </trkpt>
      <trkpt lat="48.70266" lon="1.79264">
        <ele>178.2</ele>
        <time>2015-06-14T10:11:12.000Z</time>
      </trkpt>
      <trkpt lat="48.70264" lon="1.79233">
        <ele>178</ele>
        <time>2015-06-14T10:11:19.000Z</time>
      </trkpt>
      <trkpt lat="48.70264" lon="1.79207">
        <ele>178</ele>
        <time>2015-06-14T10:11:24.000Z</time>
      </trkpt>
      <trkpt lat="48.70263" lon="1.79187">
        <ele>178.1</ele>
        <time>2015-06-14T10:11:28.000Z</time>
      </trkpt>
      <trkpt lat="48.7026" lon="1.7916">
        <ele>178.5</ele>
        <time>2015-06-14T10:11:33.000Z</time>
      </trkpt>
      <trkpt lat="48.70262" lon="1.79137">
        <ele>178</ele>
        <time>2015-06-14T10:11:38.000Z</time>
      </trkpt>
      <trkpt lat="48.70259" lon="1.7911">
        <ele>178</ele>
        <time>2015-06-14T10:11:43.000Z</time>
      </trkpt>
      <trkpt lat="48.70258" lon="1.79086">
        <ele>178</ele>
        <time>2015-06-14T10:11:48.000Z</time>
      </trkpt>
      <trkpt lat="48.70257" lon="1.79066">
        <ele>178</ele>
        <time>2015-06-14T10:11:53.000Z</time>
      </trkpt>
      <trkpt lat="48.70256" lon="1.79041">
        <ele>178</ele>
        <time>2015-06-14T10:11:58.000Z</time>
      </trkpt>
      <trkpt lat="48.70253" lon="1.79005">
        <ele>178</ele>
        <time>2015-06-14T10:12:05.000Z</time>
      </trkpt>
      <trkpt lat="48.70253" lon="1.78979">
        <ele>178</ele>
        <time>2015-06-14T10:12:10.000Z</time>
      </trkpt>
      <trkpt lat="48.70253" lon="1.78941">
        <ele>178</ele>
        <time>2015-06-14T10:12:17.000Z</time>
      </trkpt>
      <trkpt lat="48.70248" lon="1.78914">
        <ele>178</ele>
        <time>2015-06-14T10:12:22.000Z</time>
      </trkpt>
      <trkpt lat="48.70248" lon="1.78896">
        <ele>178</ele>
        <time>2015-06-14T10:12:26.000Z</time>
      </trkpt>
      <trkpt lat="48.70248" lon="1.78888">
        <ele>178</ele>
        <time>2015-06-14T10:12:28.000Z</time>
      </trkpt>
      <trkpt lat="48.70243" lon="1.78857">
        <ele>178</ele>
        <time>2015-06-14T10:12:35.000Z</time>
      </trkpt>
      <trkpt lat="48.7024" lon="1.78833">
        <ele>178</ele>
        <time>2015-06-14T10:12:40.000Z</time>
      </trkpt>
      <trkpt lat="48.70241" lon="1.78823">
        <ele>178</ele>
        <time>2015-06-14T10:12:43.000Z</time>
      </trkpt>
      <trkpt lat="48.70242" lon="1.78795">
        <ele>178</ele>
        <time>2015-06-14T10:12:50.000Z</time>
      </trkpt>
      <trkpt lat="48.70242" lon="1.78766">
        <ele>178</ele>
        <time>2015-06-14T10:12:56.000Z</time>
      </trkpt>
      <trkpt lat="48.70239" lon="1.78746">
        <ele>177.9</ele>
        <time>2015-06-14T10:13:01.000Z</time>
      </trkpt>
      <trkpt lat="48.70233" lon="1.78714">
        <ele>177.6</ele>
        <time>2015-06-14T10:13:07.000Z</time>
      </trkpt>
      <trkpt lat="48.70234" lon="1.787">
        <ele>177.9</ele>
        <time>2015-06-14T10:13:11.000Z</time>
      </trkpt>
      <trkpt lat="48.70232" lon="1.78684">
        <ele>178</ele>
        <time>2015-06-14T10:13:15.000Z</time>
      </trkpt>
      <trkpt lat="48.70235" lon="1.78664">
        <ele>177.9</ele>
        <time>2015-06-14T10:13:19.000Z</time>
      </trkpt>
      <trkpt lat="48.70236" lon="1.78634">
        <ele>177.6</ele>
        <time>2015-06-14T10:13:25.000Z</time>
      </trkpt>
      <trkpt lat="48.70235" lon="1.78608">
        <ele>177.9</ele>
        <time>2015-06-14T10:13:30.000Z</time>
      </trkpt>
      <trkpt lat="48.70234" lon="1.78589">
        <ele>177.1</ele>
        <time>2015-06-14T10:13:34.000Z</time>
      </trkpt>
      <trkpt lat="48.70231" lon="1.78555">
        <ele>178</ele>
        <time>2015-06-14T10:13:41.000Z</time>
      </trkpt>
      <trkpt lat="48.70233" lon="1.78543">
        <ele>178</ele>
        <time>2015-06-14T10:13:44.000Z</time>
      </trkpt>
      <trkpt lat="48.70248" lon="1.7854">
        <ele>178</ele>
        <time>2015-06-14T10:13:49.000Z</time>
      </trkpt>
      <trkpt lat="48.70258" lon="1.78542">
        <ele>178</ele>
        <time>2015-06-14T10:13:52.000Z</time>
      </trkpt>
      <trkpt lat="48.70287" lon="1.78541">
        <ele>178.3</ele>
        <time>2015-06-14T10:13:58.000Z</time>
      </trkpt>
      <trkpt lat="48.70297" lon="1.78543">
        <ele>178.7</ele>
        <time>2015-06-14T10:14:00.000Z</time>
      </trkpt>
      <trkpt lat="48.70309" lon="1.78544">
        <ele>179</ele>
        <time>2015-06-14T10:14:03.000Z</time>
      </trkpt>
      <trkpt lat="48.70319" lon="1.78547">
        <ele>179</ele>
        <time>2015-06-14T10:14:07.000Z</time>
      </trkpt>
      <trkpt lat="48.70327" lon="1.78551">
        <ele>179</ele>
        <time>2015-06-14T10:14:10.000Z</time>
      </trkpt>
      <trkpt lat="48.70347" lon="1.78553">
        <ele>179</ele>
        <time>2015-06-14T10:14:16.000Z</time>
      </trkpt>
      <trkpt lat="48.70363" lon="1.78552">
        <ele>179</ele>
        <time>2015-06-14T10:14:20.000Z</time>
      </trkpt>
      <trkpt lat="48.70377" lon="1.78551">
        <ele>179</ele>
        <time>2015-06-14T10:14:24.000Z</time>
      </trkpt>
      <trkpt lat="48.70381" lon="1.78553">
        <ele>179</ele>
        <time>2015-06-14T10:14:26.000Z</time>
      </trkpt>
      <trkpt lat="48.7039" lon="1.78562">
        <ele>179</ele>
        <time>2015-06-14T10:14:31.000Z</time>
      </trkpt>
      <trkpt lat="48.70404" lon="1.78564">
        <ele>179</ele>
        <time>2015-06-14T10:14:36.000Z</time>
      </trkpt>
      <trkpt lat="48.70415" lon="1.78561">
        <ele>179</ele>
        <time>2015-06-14T10:14:38.000Z</time>
      </trkpt>
      <trkpt lat="48.70432" lon="1.78562">
        <ele>178.4</ele>
        <time>2015-06-14T10:14:43.000Z</time>
      </trkpt>
      <trkpt lat="48.70446" lon="1.78564">
        <ele>178</ele>
        <time>2015-06-14T10:14:48.000Z</time>
      </trkpt>
      <trkpt lat="48.70461" lon="1.78567">
        <ele>178</ele>
        <time>2015-06-14T10:14:53.000Z</time>
      </trkpt>
      <trkpt lat="48.70469" lon="1.78571">
        <ele>178</ele>
        <time>2015-06-14T10:14:57.000Z</time>
      </trkpt>
      <trkpt lat="48.70483" lon="1.7857">
        <ele>178</ele>
        <time>2015-06-14T10:15:01.000Z</time>
      </trkpt>
      <trkpt lat="48.70503" lon="1.78568">
        <ele>178</ele>
        <time>2015-06-14T10:15:06.000Z</time>
      </trkpt>
      <trkpt lat="48.70514" lon="1.78572">
        <ele>178</ele>
        <time>2015-06-14T10:15:10.000Z</time>
      </trkpt>
      <trkpt lat="48.70531" lon="1.78571">
        <ele>178</ele>
        <time>2015-06-14T10:15:16.000Z</time>
      </trkpt>
      <trkpt lat="48.70532" lon="1.78571">
        <ele>178</ele>
        <time>2015-06-14T10:15:17.000Z</time>
      </trkpt>
      <trkpt lat="48.70523" lon="1.78558">
        <ele>178</ele>
        <time>2015-06-14T10:15:23.000Z</time>
      </trkpt>
      <trkpt lat="48.70521" lon="1.7855">
        <ele>178</ele>
        <time>2015-06-14T10:15:25.000Z</time>
      </trkpt>
      <trkpt lat="48.7051" lon="1.78524">
        <ele>178</ele>
        <time>2015-06-14T10:15:31.000Z</time>
      </trkpt>
      <trkpt lat="48.70504" lon="1.78499">
        <ele>178</ele>
        <time>2015-06-14T10:15:37.000Z</time>
      </trkpt>
      <trkpt lat="48.70499" lon="1.78478">
        <ele>178</ele>
        <time>2015-06-14T10:15:43.000Z</time>
      </trkpt>
      <trkpt lat="48.70493" lon="1.78454">
        <ele>178</ele>
        <time>2015-06-14T10:15:48.000Z</time>
      </trkpt>
      <trkpt lat="48.70489" lon="1.78426">
        <ele>178</ele>
        <time>2015-06-14T10:15:54.000Z</time>
      </trkpt>
      <trkpt lat="48.70486" lon="1.78403">
        <ele>178</ele>
        <time>2015-06-14T10:15:59.000Z</time>
      </trkpt>
      <trkpt lat="48.70478" lon="1.78367">
        <ele>178</ele>
        <time>2015-06-14T10:16:05.000Z</time>
      </trkpt>
      <trkpt lat="48.70478" lon="1.78362">
        <ele>178</ele>
        <time>2015-06-14T10:16:06.000Z</time>
      </trkpt>
      <trkpt lat="48.70472" lon="1.7833">
        <ele>178</ele>
        <time>2015-06-14T10:16:13.000Z</time>
      </trkpt>
      <trkpt lat="48.70469" lon="1.7831">
        <ele>178</ele>
        <time>2015-06-14T10:16:17.000Z</time>
      </trkpt>
      <trkpt lat="48.70467" lon="1.78284">
        <ele>178</ele>
        <time>2015-06-14T10:16:22.000Z</time>
      </trkpt>
      <trkpt lat="48.70461" lon="1.78244">
        <ele>178</ele>
        <time>2015-06-14T10:16:30.000Z</time>
      </trkpt>
      <trkpt lat="48.70458" lon="1.78224">
        <ele>178</ele>
        <time>2015-06-14T10:16:35.000Z</time>
      </trkpt>
      <trkpt lat="48.70456" lon="1.782">
        <ele>178</ele>
        <time>2015-06-14T10:16:40.000Z</time>
      </trkpt>
      <trkpt lat="48.70451" lon="1.78177">
        <ele>177.9</ele>
        <time>2015-06-14T10:16:45.000Z</time>
      </trkpt>
      <trkpt lat="48.70445" lon="1.78151">
        <ele>178</ele>
        <time>2015-06-14T10:16:50.000Z</time>
      </trkpt>
      <trkpt lat="48.70439" lon="1.7812">
        <ele>178</ele>
        <time>2015-06-14T10:16:56.000Z</time>
      </trkpt>
      <trkpt lat="48.70439" lon="1.78093">
        <ele>178</ele>
        <time>2015-06-14T10:17:02.000Z</time>
      </trkpt>
      <trkpt lat="48.70431" lon="1.78063">
        <ele>177.6</ele>
        <time>2015-06-14T10:17:09.000Z</time>
      </trkpt>
      <trkpt lat="48.70428" lon="1.78032">
        <ele>177.6</ele>
        <time>2015-06-14T10:17:15.000Z</time>
      </trkpt>
      <trkpt lat="48.70424" lon="1.78007">
        <ele>177.7</ele>
        <time>2015-06-14T10:17:20.000Z</time>
      </trkpt>
      <trkpt lat="48.7042" lon="1.77982">
        <ele>177.9</ele>
        <time>2015-06-14T10:17:25.000Z</time>
      </trkpt>
      <trkpt lat="48.70415" lon="1.77954">
        <ele>178</ele>
        <time>2015-06-14T10:17:31.000Z</time>
      </trkpt>
      <trkpt lat="48.70412" lon="1.7793">
        <ele>178</ele>
        <time>2015-06-14T10:17:36.000Z</time>
      </trkpt>
      <trkpt lat="48.70408" lon="1.77907">
        <ele>178</ele>
        <time>2015-06-14T10:17:41.000Z</time>
      </trkpt>
      <trkpt lat="48.70404" lon="1.77889">
        <ele>178</ele>
        <time>2015-06-14T10:17:45.000Z</time>
      </trkpt>
      <trkpt lat="48.70399" lon="1.7787">
        <ele>178</ele>
        <time>2015-06-14T10:17:49.000Z</time>
      </trkpt>
      <trkpt lat="48.70394" lon="1.77842">
        <ele>178</ele>
        <time>2015-06-14T10:17:55.000Z</time>
      </trkpt>
      <trkpt lat="48.70392" lon="1.77827">
        <ele>178</ele>
        <time>2015-06-14T10:18:00.000Z</time>
      </trkpt>
      <trkpt lat="48.70391" lon="1.77814">
        <ele>178</ele>
        <time>2015-06-14T10:18:07.000Z</time>
      </trkpt>
      <trkpt lat="48.7039" lon="1.77803">
        <ele>178</ele>
        <time>2015-06-14T10:18:13.000Z</time>
      </trkpt>
      <trkpt lat="48.7039" lon="1.77793">
        <ele>178</ele>
        <time>2015-06-14T10:18:17.000Z</time>
      </trkpt>
      <trkpt lat="48.70385" lon="1.77774">
        <ele>178</ele>
        <time>2015-06-14T10:18:25.000Z</time>
      </trkpt>
      <trkpt lat="48.70383" lon="1.77765">
        <ele>178</ele>
        <time>2015-06-14T10:18:30.000Z</time>
      </trkpt>
      <trkpt lat="48.70379" lon="1.77748">
        <ele>178</ele>
        <time>2015-06-14T10:18:37.000Z</time>
      </trkpt>
      <trkpt lat="48.70379" lon="1.77729">
        <ele>178</ele>
        <time>2015-06-14T10:18:44.000Z</time>
      </trkpt>
      <trkpt lat="48.70376" lon="1.77714">
        <ele>178</ele>
        <time>2015-06-14T10:18:51.000Z</time>
      </trkpt>
      <trkpt lat="48.70375" lon="1.77707">
        <ele>178</ele>
        <time>2015-06-14T10:18:55.000Z</time>
      </trkpt>
      <trkpt lat="48.70373" lon="1.77692">
        <ele>178</ele>
        <time>2015-06-14T10:19:02.000Z</time>
      </trkpt>
      <trkpt lat="48.70372" lon="1.77688">
        <ele>178</ele>
        <time>2015-06-14T10:19:05.000Z</time>
      </trkpt>
      <trkpt lat="48.70372" lon="1.77678">
        <ele>178</ele>
        <time>2015-06-14T10:19:09.000Z</time>
      </trkpt>
      <trkpt lat="48.70371" lon="1.77672">
        <ele>178</ele>
        <time>2015-06-14T10:19:11.000Z</time>
      </trkpt>
      <trkpt lat="48.70373" lon="1.77665">
        <ele>178</ele>
        <time>2015-06-14T10:19:14.000Z</time>
      </trkpt>
      <trkpt lat="48.70369" lon="1.77648">
        <ele>178</ele>
        <time>2015-06-14T10:19:20.000Z</time>
      </trkpt>
      <trkpt lat="48.70368" lon="1.77638">
        <ele>178</ele>
        <time>2015-06-14T10:19:24.000Z</time>
      </trkpt>
      <trkpt lat="48.70369" lon="1.77625">
        <ele>178</ele>
        <time>2015-06-14T10:19:30.000Z</time>
      </trkpt>
      <trkpt lat="48.70369" lon="1.77617">
        <ele>178</ele>
        <time>2015-06-14T10:19:33.000Z</time>
      </trkpt>
      <trkpt lat="48.70369" lon="1.77603">
        <ele>178</ele>
        <time>2015-06-14T10:19:38.000Z</time>
      </trkpt>
      <trkpt lat="48.7037" lon="1.77601">
        <ele>178</ele>
        <time>2015-06-14T10:19:40.000Z</time>
      </trkpt>
      <trkpt lat="48.70366" lon="1.77586">
        <ele>178</ele>
        <time>2015-06-14T10:19:46.000Z</time>
      </trkpt>
      <trkpt lat="48.7036" lon="1.77574">
        <ele>178</ele>
        <time>2015-06-14T10:19:51.000Z</time>
      </trkpt>
      <trkpt lat="48.70355" lon="1.77557">
        <ele>178</ele>
        <time>2015-06-14T10:19:59.000Z</time>
      </trkpt>
      <trkpt lat="48.70352" lon="1.77543">
        <ele>178</ele>
        <time>2015-06-14T10:20:04.000Z</time>
      </trkpt>
      <trkpt lat="48.70351" lon="1.77532">
        <ele>178</ele>
        <time>2015-06-14T10:20:10.000Z</time>
      </trkpt>
      <trkpt lat="48.70352" lon="1.77532">
        <ele>178</ele>
        <time>2015-06-14T10:20:11.000Z</time>
      </trkpt>
      <trkpt lat="48.70353" lon="1.77526">
        <ele>178</ele>
        <time>2015-06-14T10:20:15.000Z</time>
      </trkpt>
      <trkpt lat="48.70346" lon="1.77501">
        <ele>178</ele>
        <time>2015-06-14T10:20:24.000Z</time>
      </trkpt>
      <trkpt lat="48.70346" lon="1.77492">
        <ele>178</ele>
        <time>2015-06-14T10:20:27.000Z</time>
      </trkpt>
      <trkpt lat="48.70345" lon="1.7748">
        <ele>178</ele>
        <time>2015-06-14T10:20:34.000Z</time>
      </trkpt>
      <trkpt lat="48.70343" lon="1.77472">
        <ele>178</ele>
        <time>2015-06-14T10:20:37.000Z</time>
      </trkpt>
      <trkpt lat="48.70337" lon="1.77458">
        <ele>178</ele>
        <time>2015-06-14T10:20:43.000Z</time>
      </trkpt>
      <trkpt lat="48.70333" lon="1.77442">
        <ele>178</ele>
        <time>2015-06-14T10:20:49.000Z</time>
      </trkpt>
      <trkpt lat="48.7033" lon="1.77425">
        <ele>178</ele>
        <time>2015-06-14T10:20:54.000Z</time>
      </trkpt>
      <trkpt lat="48.70331" lon="1.77416">
        <ele>178</ele>
        <time>2015-06-14T10:20:58.000Z</time>
      </trkpt>
      <trkpt lat="48.70331" lon="1.77405">
        <ele>178</ele>
        <time>2015-06-14T10:21:04.000Z</time>
      </trkpt>
      <trkpt lat="48.70333" lon="1.77392">
        <ele>178</ele>
        <time>2015-06-14T10:21:10.000Z</time>
      </trkpt>
      <trkpt lat="48.70333" lon="1.7739">
        <ele>178</ele>
        <time>2015-06-14T10:21:11.000Z</time>
      </trkpt>
      <trkpt lat="48.70336" lon="1.77383">
        <ele>177.9</ele>
        <time>2015-06-14T10:21:15.000Z</time>
      </trkpt>
      <trkpt lat="48.70345" lon="1.77375">
        <ele>177.6</ele>
        <time>2015-06-14T10:21:22.000Z</time>
      </trkpt>
      <trkpt lat="48.70352" lon="1.77368">
        <ele>177.3</ele>
        <time>2015-06-14T10:21:27.000Z</time>
      </trkpt>
      <trkpt lat="48.70358" lon="1.77361">
        <ele>177.1</ele>
        <time>2015-06-14T10:21:32.000Z</time>
      </trkpt>
      <trkpt lat="48.70362" lon="1.77349">
        <ele>177</ele>
        <time>2015-06-14T10:21:38.000Z</time>
      </trkpt>
      <trkpt lat="48.70365" lon="1.77332">
        <ele>177</ele>
        <time>2015-06-14T10:21:46.000Z</time>
      </trkpt>
      <trkpt lat="48.70367" lon="1.77319">
        <ele>177</ele>
        <time>2015-06-14T10:21:53.000Z</time>
      </trkpt>
      <trkpt lat="48.70371" lon="1.77307">
        <ele>177</ele>
        <time>2015-06-14T10:21:59.000Z</time>
      </trkpt>
      <trkpt lat="48.70372" lon="1.77298">
        <ele>177</ele>
        <time>2015-06-14T10:22:03.000Z</time>
      </trkpt>
      <trkpt lat="48.70373" lon="1.77286">
        <ele>177</ele>
        <time>2015-06-14T10:22:07.000Z</time>
      </trkpt>
      <trkpt lat="48.70371" lon="1.77273">
        <ele>177</ele>
        <time>2015-06-14T10:22:12.000Z</time>
      </trkpt>
      <trkpt lat="48.70371" lon="1.77273">
        <ele>177</ele>
        <time>2015-06-14T10:22:14.000Z</time>
      </trkpt>
      <trkpt lat="48.7037" lon="1.77267">
        <ele>177</ele>
        <time>2015-06-14T10:22:18.000Z</time>
      </trkpt>
      <trkpt lat="48.7037" lon="1.77264">
        <ele>177</ele>
        <time>2015-06-14T10:22:19.000Z</time>
      </trkpt>
      <trkpt lat="48.70368" lon="1.77244">
        <ele>177</ele>
        <time>2015-06-14T10:22:25.000Z</time>
      </trkpt>
      <trkpt lat="48.70366" lon="1.77224">
        <ele>177</ele>
        <time>2015-06-14T10:22:33.000Z</time>
      </trkpt>
      <trkpt lat="48.70365" lon="1.77211">
        <ele>177</ele>
        <time>2015-06-14T10:22:39.000Z</time>
      </trkpt>
      <trkpt lat="48.70362" lon="1.77187">
        <ele>177</ele>
        <time>2015-06-14T10:22:49.000Z</time>
      </trkpt>
      <trkpt lat="48.70355" lon="1.77159">
        <ele>177</ele>
        <time>2015-06-14T10:23:00.000Z</time>
      </trkpt>
      <trkpt lat="48.70351" lon="1.77138">
        <ele>177</ele>
        <time>2015-06-14T10:23:08.000Z</time>
      </trkpt>
      <trkpt lat="48.70348" lon="1.77114">
        <ele>177</ele>
        <time>2015-06-14T10:23:19.000Z</time>
      </trkpt>
      <trkpt lat="48.70342" lon="1.77097">
        <ele>177</ele>
        <time>2015-06-14T10:23:27.000Z</time>
      </trkpt>
      <trkpt lat="48.70342" lon="1.77083">
        <ele>177</ele>
        <time>2015-06-14T10:23:33.000Z</time>
      </trkpt>
      <trkpt lat="48.70337" lon="1.7706">
        <ele>176.9</ele>
        <time>2015-06-14T10:23:42.000Z</time>
      </trkpt>
      <trkpt lat="48.70337" lon="1.77041">
        <ele>176.4</ele>
        <time>2015-06-14T10:23:49.000Z</time>
      </trkpt>
      <trkpt lat="48.70337" lon="1.77038">
        <ele>176.3</ele>
        <time>2015-06-14T10:23:50.000Z</time>
      </trkpt>
      <trkpt lat="48.70337" lon="1.7703">
        <ele>176.1</ele>
        <time>2015-06-14T10:23:54.000Z</time>
      </trkpt>
      <trkpt lat="48.70337" lon="1.77027">
        <ele>176</ele>
        <time>2015-06-14T10:23:56.000Z</time>
      </trkpt>
      <trkpt lat="48.70339" lon="1.77009">
        <ele>176.5</ele>
        <time>2015-06-14T10:24:04.000Z</time>
      </trkpt>
      <trkpt lat="48.70339" lon="1.77007">
        <ele>176.6</ele>
        <time>2015-06-14T10:24:05.000Z</time>
      </trkpt>
      <trkpt lat="48.70339" lon="1.76998">
        <ele>176.8</ele>
        <time>2015-06-14T10:24:09.000Z</time>
      </trkpt>
      <trkpt lat="48.7034" lon="1.76979">
        <ele>176.9</ele>
        <time>2015-06-14T10:24:19.000Z</time>
      </trkpt>
      <trkpt lat="48.70338" lon="1.76963">
        <ele>177</ele>
        <time>2015-06-14T10:24:29.000Z</time>
      </trkpt>
      <trkpt lat="48.70337" lon="1.76953">
        <ele>177</ele>
        <time>2015-06-14T10:24:35.000Z</time>
      </trkpt>
      <trkpt lat="48.70334" lon="1.76932">
        <ele>176.6</ele>
        <time>2015-06-14T10:24:44.000Z</time>
      </trkpt>
      <trkpt lat="48.70335" lon="1.76918">
        <ele>176</ele>
        <time>2015-06-14T10:24:50.000Z</time>
      </trkpt>
      <trkpt lat="48.70334" lon="1.76894">
        <ele>176</ele>
        <time>2015-06-14T10:25:00.000Z</time>
      </trkpt>
      <trkpt lat="48.70334" lon="1.76868">
        <ele>176</ele>
        <time>2015-06-14T10:25:13.000Z</time>
      </trkpt>
      <trkpt lat="48.70333" lon="1.76843">
        <ele>175.3</ele>
        <time>2015-06-14T10:25:25.000Z</time>
      </trkpt>
      <trkpt lat="48.70333" lon="1.76823">
        <ele>175</ele>
        <time>2015-06-14T10:25:34.000Z</time>
      </trkpt>
      <trkpt lat="48.70332" lon="1.76803">
        <ele>174.9</ele>
        <time>2015-06-14T10:25:43.000Z</time>
      </trkpt>
      <trkpt lat="48.70333" lon="1.76781">
        <ele>174.1</ele>
        <time>2015-06-14T10:25:53.000Z</time>
      </trkpt>
      <trkpt lat="48.70331" lon="1.76768">
        <ele>174</ele>
        <time>2015-06-14T10:25:58.000Z</time>
      </trkpt>
      <trkpt lat="48.70328" lon="1.76751">
        <ele>174</ele>
        <time>2015-06-14T10:26:05.000Z</time>
      </trkpt>
      <trkpt lat="48.70326" lon="1.76733">
        <ele>173.4</ele>
        <time>2015-06-14T10:26:13.000Z</time>
      </trkpt>
      <trkpt lat="48.70326" lon="1.76729">
        <ele>173.2</ele>
        <time>2015-06-14T10:26:15.000Z</time>
      </trkpt>
      <trkpt lat="48.70324" lon="1.7671">
        <ele>172.5</ele>
        <time>2015-06-14T10:26:23.000Z</time>
      </trkpt>
      <trkpt lat="48.70322" lon="1.76685">
        <ele>171.9</ele>
        <time>2015-06-14T10:26:32.000Z</time>
      </trkpt>
      <trkpt lat="48.7032" lon="1.76666">
        <ele>171.5</ele>
        <time>2015-06-14T10:26:40.000Z</time>
      </trkpt>
      <trkpt lat="48.70316" lon="1.76648">
        <ele>170.7</ele>
        <time>2015-06-14T10:26:46.000Z</time>
      </trkpt>
      <trkpt lat="48.70314" lon="1.7664">
        <ele>170.4</ele>
        <time>2015-06-14T10:26:49.000Z</time>
      </trkpt>
      <trkpt lat="48.70316" lon="1.76638">
        <ele>170.3</ele>
        <time>2015-06-14T10:26:51.000Z</time>
      </trkpt>
      <trkpt lat="48.70324" lon="1.76633">
        <ele>170.6</ele>
        <time>2015-06-14T10:26:57.000Z</time>
      </trkpt>
      <trkpt lat="48.7033" lon="1.76629">
        <ele>170.8</ele>
        <time>2015-06-14T10:27:01.000Z</time>
      </trkpt>
      <trkpt lat="48.70339" lon="1.76629">
        <ele>171.3</ele>
        <time>2015-06-14T10:27:07.000Z</time>
      </trkpt>
      <trkpt lat="48.70343" lon="1.76627">
        <ele>171.6</ele>
        <time>2015-06-14T10:27:10.000Z</time>
      </trkpt>
      <trkpt lat="48.70351" lon="1.76623">
        <ele>171.9</ele>
        <time>2015-06-14T10:27:16.000Z</time>
      </trkpt>
      <trkpt lat="48.70354" lon="1.76622">
        <ele>172</ele>
        <time>2015-06-14T10:27:19.000Z</time>
      </trkpt>
      <trkpt lat="48.70363" lon="1.76619">
        <ele>172.4</ele>
        <time>2015-06-14T10:27:26.000Z</time>
      </trkpt>
      <trkpt lat="48.70371" lon="1.76614">
        <ele>172.5</ele>
        <time>2015-06-14T10:27:34.000Z</time>
      </trkpt>
      <trkpt lat="48.7038" lon="1.7661">
        <ele>172.7</ele>
        <time>2015-06-14T10:27:42.000Z</time>
      </trkpt>
      <trkpt lat="48.70381" lon="1.76609">
        <ele>172.7</ele>
        <time>2015-06-14T10:27:44.000Z</time>
      </trkpt>
      <trkpt lat="48.70387" lon="1.76606">
        <ele>172.9</ele>
        <time>2015-06-14T10:27:48.000Z</time>
      </trkpt>
      <trkpt lat="48.70396" lon="1.766">
        <ele>173.1</ele>
        <time>2015-06-14T10:27:55.000Z</time>
      </trkpt>
      <trkpt lat="48.70403" lon="1.76594">
        <ele>173.2</ele>
        <time>2015-06-14T10:27:59.000Z</time>
      </trkpt>
      <trkpt lat="48.70409" lon="1.76593">
        <ele>173.2</ele>
        <time>2015-06-14T10:28:02.000Z</time>
      </trkpt>
      <trkpt lat="48.70414" lon="1.76585">
        <ele>173.1</ele>
        <time>2015-06-14T10:28:06.000Z</time>
      </trkpt>
      <trkpt lat="48.7042" lon="1.7658">
        <ele>173.1</ele>
        <time>2015-06-14T10:28:11.000Z</time>
      </trkpt>
      <trkpt lat="48.70423" lon="1.76576">
        <ele>173.2</ele>
        <time>2015-06-14T10:28:14.000Z</time>
      </trkpt>
      <trkpt lat="48.7043" lon="1.76572">
        <ele>173.3</ele>
        <time>2015-06-14T10:28:19.000Z</time>
      </trkpt>
      <trkpt lat="48.70438" lon="1.76558">
        <ele>173.1</ele>
        <time>2015-06-14T10:28:26.000Z</time>
      </trkpt>
      <trkpt lat="48.70438" lon="1.76557">
        <ele>173</ele>
        <time>2015-06-14T10:28:27.000Z</time>
      </trkpt>
      <trkpt lat="48.70439" lon="1.76543">
        <ele>172.6</ele>
        <time>2015-06-14T10:28:34.000Z</time>
      </trkpt>
      <trkpt lat="48.70441" lon="1.76535">
        <ele>172.3</ele>
        <time>2015-06-14T10:28:37.000Z</time>
      </trkpt>
      <trkpt lat="48.70441" lon="1.7652">
        <ele>172</ele>
        <time>2015-06-14T10:28:43.000Z</time>
      </trkpt>
      <trkpt lat="48.70445" lon="1.76511">
        <ele>172</ele>
        <time>2015-06-14T10:28:47.000Z</time>
      </trkpt>
      <trkpt lat="48.70445" lon="1.76506">
        <ele>172</ele>
        <time>2015-06-14T10:28:49.000Z</time>
      </trkpt>
      <trkpt lat="48.70446" lon="1.76495">
        <ele>171.8</ele>
        <time>2015-06-14T10:28:54.000Z</time>
      </trkpt>
      <trkpt lat="48.70445" lon="1.76484">
        <ele>171.4</ele>
        <time>2015-06-14T10:28:58.000Z</time>
      </trkpt>
      <trkpt lat="48.70445" lon="1.76477">
        <ele>171.2</ele>
        <time>2015-06-14T10:29:01.000Z</time>
      </trkpt>
      <trkpt lat="48.7045" lon="1.7646">
        <ele>170.6</ele>
        <time>2015-06-14T10:29:09.000Z</time>
      </trkpt>
      <trkpt lat="48.7045" lon="1.76454">
        <ele>170.4</ele>
        <time>2015-06-14T10:29:15.000Z</time>
      </trkpt>
      <trkpt lat="48.70452" lon="1.76448">
        <ele>170.1</ele>
        <time>2015-06-14T10:29:20.000Z</time>
      </trkpt>
      <trkpt lat="48.70454" lon="1.76439">
        <ele>169.9</ele>
        <time>2015-06-14T10:29:25.000Z</time>
      </trkpt>
      <trkpt lat="48.70454" lon="1.7643">
        <ele>169.7</ele>
        <time>2015-06-14T10:29:30.000Z</time>
      </trkpt>
      <trkpt lat="48.70457" lon="1.7642">
        <ele>169.5</ele>
        <time>2015-06-14T10:29:35.000Z</time>
      </trkpt>
      <trkpt lat="48.70457" lon="1.76415">
        <ele>169.4</ele>
        <time>2015-06-14T10:29:37.000Z</time>
      </trkpt>
      <trkpt lat="48.70457" lon="1.76404">
        <ele>169</ele>
        <time>2015-06-14T10:29:42.000Z</time>
      </trkpt>
      <trkpt lat="48.70457" lon="1.76404">
        <ele>169</ele>
        <time>2015-06-14T10:29:42.000Z</time>
      </trkpt>
      <trkpt lat="48.70457" lon="1.76399">
        <ele>168.8</ele>
        <time>2015-06-14T10:29:44.000Z</time>
      </trkpt>
      <trkpt lat="48.70452" lon="1.7638">
        <ele>168.3</ele>
        <time>2015-06-14T10:29:51.000Z</time>
      </trkpt>
      <trkpt lat="48.7045" lon="1.76372">
        <ele>168.2</ele>
        <time>2015-06-14T10:29:54.000Z</time>
      </trkpt>
      <trkpt lat="48.7045" lon="1.76372">
        <ele>168.2</ele>
        <time>2015-06-14T10:29:54.000Z</time>
      </trkpt>
      <trkpt lat="48.7045" lon="1.76364">
        <ele>168.2</ele>
        <time>2015-06-14T10:29:57.000Z</time>
      </trkpt>
      <trkpt lat="48.7045" lon="1.76354">
        <ele>168.2</ele>
        <time>2015-06-14T10:30:02.000Z</time>
      </trkpt>
      <trkpt lat="48.70445" lon="1.76346">
        <ele>168</ele>
        <time>2015-06-14T10:30:09.000Z</time>
      </trkpt>
      <trkpt lat="48.70441" lon="1.76338">
        <ele>167.9</ele>
        <time>2015-06-14T10:30:13.000Z</time>
      </trkpt>
      <trkpt lat="48.70439" lon="1.76328">
        <ele>167.8</ele>
        <time>2015-06-14T10:30:17.000Z</time>
      </trkpt>
      <trkpt lat="48.70437" lon="1.76313">
        <ele>167.7</ele>
        <time>2015-06-14T10:30:24.000Z</time>
      </trkpt>
      <trkpt lat="48.70438" lon="1.76297">
        <ele>168</ele>
        <time>2015-06-14T10:30:30.000Z</time>
      </trkpt>
      <trkpt lat="48.70438" lon="1.76291">
        <ele>168.2</ele>
        <time>2015-06-14T10:30:33.000Z</time>
      </trkpt>
      <trkpt lat="48.70441" lon="1.76274">
        <ele>168.7</ele>
        <time>2015-06-14T10:30:42.000Z</time>
      </trkpt>
      <trkpt lat="48.70445" lon="1.76265">
        <ele>168.6</ele>
        <time>2015-06-14T10:30:47.000Z</time>
      </trkpt>
      <trkpt lat="48.70454" lon="1.7625">
        <ele>168.7</ele>
        <time>2015-06-14T10:30:54.000Z</time>
      </trkpt>
      <trkpt lat="48.70457" lon="1.76238">
        <ele>168.5</ele>
        <time>2015-06-14T10:30:59.000Z</time>
      </trkpt>
      <trkpt lat="48.70455" lon="1.76233">
        <ele>168.2</ele>
        <time>2015-06-14T10:31:03.000Z</time>
      </trkpt>
      <trkpt lat="48.70455" lon="1.76225">
        <ele>167.8</ele>
        <time>2015-06-14T10:31:09.000Z</time>
      </trkpt>
      <trkpt lat="48.70451" lon="1.76208">
        <ele>167.3</ele>
        <time>2015-06-14T10:31:14.000Z</time>
      </trkpt>
      <trkpt lat="48.70447" lon="1.76198">
        <ele>167.1</ele>
        <time>2015-06-14T10:31:17.000Z</time>
      </trkpt>
      <trkpt lat="48.70443" lon="1.76181">
        <ele>167</ele>
        <time>2015-06-14T10:31:23.000Z</time>
      </trkpt>
      <trkpt lat="48.70444" lon="1.7617">
        <ele>167</ele>
        <time>2015-06-14T10:31:29.000Z</time>
      </trkpt>
      <trkpt lat="48.70443" lon="1.76152">
        <ele>167</ele>
        <time>2015-06-14T10:31:35.000Z</time>
      </trkpt>
      <trkpt lat="48.70444" lon="1.7614">
        <ele>167</ele>
        <time>2015-06-14T10:31:41.000Z</time>
      </trkpt>
      <trkpt lat="48.70447" lon="1.76128">
        <ele>167.5</ele>
        <time>2015-06-14T10:31:46.000Z</time>
      </trkpt>
      <trkpt lat="48.7045" lon="1.76124">
        <ele>167.6</ele>
        <time>2015-06-14T10:31:48.000Z</time>
      </trkpt>
      <trkpt lat="48.70453" lon="1.76117">
        <ele>167.8</ele>
        <time>2015-06-14T10:31:52.000Z</time>
      </trkpt>
      <trkpt lat="48.70458" lon="1.76105">
        <ele>168</ele>
        <time>2015-06-14T10:32:01.000Z</time>
      </trkpt>
      <trkpt lat="48.70461" lon="1.76097">
        <ele>168</ele>
        <time>2015-06-14T10:32:07.000Z</time>
      </trkpt>
      <trkpt lat="48.70463" lon="1.76085">
        <ele>168</ele>
        <time>2015-06-14T10:32:13.000Z</time>
      </trkpt>
      <trkpt lat="48.70464" lon="1.76078">
        <ele>168.2</ele>
        <time>2015-06-14T10:32:18.000Z</time>
      </trkpt>
      <trkpt lat="48.70466" lon="1.76071">
        <ele>168.4</ele>
        <time>2015-06-14T10:32:24.000Z</time>
      </trkpt>
      <trkpt lat="48.70468" lon="1.76064">
        <ele>168.7</ele>
        <time>2015-06-14T10:32:28.000Z</time>
      </trkpt>
      <trkpt lat="48.70472" lon="1.76053">
        <ele>169</ele>
        <time>2015-06-14T10:32:34.000Z</time>
      </trkpt>
      <trkpt lat="48.70474" lon="1.76044">
        <ele>169</ele>
        <time>2015-06-14T10:32:38.000Z</time>
      </trkpt>
      <trkpt lat="48.70477" lon="1.76024">
        <ele>169.1</ele>
        <time>2015-06-14T10:32:48.000Z</time>
      </trkpt>
      <trkpt lat="48.70484" lon="1.76008">
        <ele>169.4</ele>
        <time>2015-06-14T10:32:55.000Z</time>
      </trkpt>
      <trkpt lat="48.70489" lon="1.75996">
        <ele>169.5</ele>
        <time>2015-06-14T10:33:02.000Z</time>
      </trkpt>
      <trkpt lat="48.7049" lon="1.75994">
        <ele>169.5</ele>
        <time>2015-06-14T10:33:03.000Z</time>
      </trkpt>
      <trkpt lat="48.70496" lon="1.7598">
        <ele>169.8</ele>
        <time>2015-06-14T10:33:11.000Z</time>
      </trkpt>
      <trkpt lat="48.70502" lon="1.75963">
        <ele>169.9</ele>
        <time>2015-06-14T10:33:19.000Z</time>
      </trkpt>
      <trkpt lat="48.7051" lon="1.7595">
        <ele>169.9</ele>
        <time>2015-06-14T10:33:27.000Z</time>
      </trkpt>
      <trkpt lat="48.70516" lon="1.75942">
        <ele>170</ele>
        <time>2015-06-14T10:33:33.000Z</time>
      </trkpt>
      <trkpt lat="48.70524" lon="1.75929">
        <ele>170.1</ele>
        <time>2015-06-14T10:33:41.000Z</time>
      </trkpt>
      <trkpt lat="48.70528" lon="1.75922">
        <ele>170</ele>
        <time>2015-06-14T10:33:46.000Z</time>
      </trkpt>
      <trkpt lat="48.70536" lon="1.7591">
        <ele>170.2</ele>
        <time>2015-06-14T10:33:53.000Z</time>
      </trkpt>
      <trkpt lat="48.70543" lon="1.75898">
        <ele>170.7</ele>
        <time>2015-06-14T10:34:00.000Z</time>
      </trkpt>
      <trkpt lat="48.70543" lon="1.75896">
        <ele>170.7</ele>
        <time>2015-06-14T10:34:01.000Z</time>
      </trkpt>
      <trkpt lat="48.70549" lon="1.75882">
        <ele>171</ele>
        <time>2015-06-14T10:34:08.000Z</time>
      </trkpt>
      <trkpt lat="48.70554" lon="1.75868">
        <ele>171</ele>
        <time>2015-06-14T10:34:16.000Z</time>
      </trkpt>
      <trkpt lat="48.7056" lon="1.75855">
        <ele>171</ele>
        <time>2015-06-14T10:34:23.000Z</time>
      </trkpt>
      <trkpt lat="48.70564" lon="1.75842">
        <ele>171</ele>
        <time>2015-06-14T10:34:29.000Z</time>
      </trkpt>
      <trkpt lat="48.70574" lon="1.75825">
        <ele>171.3</ele>
        <time>2015-06-14T10:34:38.000Z</time>
      </trkpt>
      <trkpt lat="48.70583" lon="1.75812">
        <ele>171.8</ele>
        <time>2015-06-14T10:34:46.000Z</time>
      </trkpt>
      <trkpt lat="48.70587" lon="1.75798">
        <ele>171.9</ele>
        <time>2015-06-14T10:34:53.000Z</time>
      </trkpt>
      <trkpt lat="48.70595" lon="1.75785">
        <ele>171.9</ele>
        <time>2015-06-14T10:35:00.000Z</time>
      </trkpt>
      <trkpt lat="48.706" lon="1.75772">
        <ele>172</ele>
        <time>2015-06-14T10:35:07.000Z</time>
      </trkpt>
      <trkpt lat="48.70606" lon="1.75758">
        <ele>172</ele>
        <time>2015-06-14T10:35:15.000Z</time>
      </trkpt>
      <trkpt lat="48.70613" lon="1.75744">
        <ele>172</ele>
        <time>2015-06-14T10:35:23.000Z</time>
      </trkpt>
      <trkpt lat="48.70617" lon="1.75732">
        <ele>172</ele>
        <time>2015-06-14T10:35:30.000Z</time>
      </trkpt>
      <trkpt lat="48.70618" lon="1.75731">
        <ele>172</ele>
        <time>2015-06-14T10:35:31.000Z</time>
      </trkpt>
      <trkpt lat="48.70625" lon="1.7572">
        <ele>172</ele>
        <time>2015-06-14T10:35:39.000Z</time>
      </trkpt>
      <trkpt lat="48.70629" lon="1.75711">
        <ele>172</ele>
        <time>2015-06-14T10:35:45.000Z</time>
      </trkpt>
      <trkpt lat="48.70629" lon="1.7571">
        <ele>172</ele>
        <time>2015-06-14T10:35:47.000Z</time>
      </trkpt>
      <trkpt lat="48.70651" lon="1.75668">
        <ele>172.5</ele>
        <time>2015-06-14T10:37:47.000Z</time>
      </trkpt>
      <trkpt lat="48.70651" lon="1.75665">
        <ele>172.6</ele>
        <time>2015-06-14T10:37:50.000Z</time>
      </trkpt>
      <trkpt lat="48.70645" lon="1.75663">
        <ele>172.8</ele>
        <time>2015-06-14T10:38:06.000Z</time>
      </trkpt>
      <trkpt lat="48.70642" lon="1.75658">
        <ele>172.9</ele>
        <time>2015-06-14T10:38:09.000Z</time>
      </trkpt>
      <trkpt lat="48.7064" lon="1.75643">
        <ele>172.9</ele>
        <time>2015-06-14T10:38:17.000Z</time>
      </trkpt>
      <trkpt lat="48.70643" lon="1.75634">
        <ele>172.7</ele>
        <time>2015-06-14T10:38:23.000Z</time>
      </trkpt>
      <trkpt lat="48.70644" lon="1.75621">
        <ele>172.4</ele>
        <time>2015-06-14T10:38:30.000Z</time>
      </trkpt>
      <trkpt lat="48.70646" lon="1.75617">
        <ele>172.4</ele>
        <time>2015-06-14T10:38:32.000Z</time>
      </trkpt>
      <trkpt lat="48.70651" lon="1.75604">
        <ele>172.4</ele>
        <time>2015-06-14T10:38:39.000Z</time>
      </trkpt>
      <trkpt lat="48.70657" lon="1.75591">
        <ele>172.6</ele>
        <time>2015-06-14T10:38:46.000Z</time>
      </trkpt>
      <trkpt lat="48.70661" lon="1.7558">
        <ele>172.8</ele>
        <time>2015-06-14T10:38:53.000Z</time>
      </trkpt>
      <trkpt lat="48.70667" lon="1.75569">
        <ele>173</ele>
        <time>2015-06-14T10:38:59.000Z</time>
      </trkpt>
      <trkpt lat="48.70671" lon="1.75557">
        <ele>173</ele>
        <time>2015-06-14T10:39:05.000Z</time>
      </trkpt>
      <trkpt lat="48.70674" lon="1.75549">
        <ele>173</ele>
        <time>2015-06-14T10:39:09.000Z</time>
      </trkpt>
      <trkpt lat="48.7068" lon="1.75536">
        <ele>173</ele>
        <time>2015-06-14T10:39:14.000Z</time>
      </trkpt>
      <trkpt lat="48.70686" lon="1.75523">
        <ele>173</ele>
        <time>2015-06-14T10:39:18.000Z</time>
      </trkpt>
      <trkpt lat="48.70688" lon="1.75517">
        <ele>173</ele>
        <time>2015-06-14T10:39:20.000Z</time>
      </trkpt>
      <trkpt lat="48.70691" lon="1.75506">
        <ele>173</ele>
        <time>2015-06-14T10:39:28.000Z</time>
      </trkpt>
      <trkpt lat="48.70694" lon="1.75498">
        <ele>173</ele>
        <time>2015-06-14T10:39:33.000Z</time>
      </trkpt>
      <trkpt lat="48.70694" lon="1.75495">
        <ele>173</ele>
        <time>2015-06-14T10:39:35.000Z</time>
      </trkpt>
      <trkpt lat="48.70695" lon="1.75492">
        <ele>173</ele>
        <time>2015-06-14T10:39:40.000Z</time>
      </trkpt>
      <trkpt lat="48.70699" lon="1.75481">
        <ele>173</ele>
        <time>2015-06-14T10:39:51.000Z</time>
      </trkpt>
      <trkpt lat="48.707" lon="1.75473">
        <ele>173</ele>
        <time>2015-06-14T10:39:55.000Z</time>
      </trkpt>
      <trkpt lat="48.70701" lon="1.7547">
        <ele>173</ele>
        <time>2015-06-14T10:39:57.000Z</time>
      </trkpt>
      <trkpt lat="48.70703" lon="1.75461">
        <ele>173</ele>
        <time>2015-06-14T10:40:01.000Z</time>
      </trkpt>
      <trkpt lat="48.70707" lon="1.7545">
        <ele>173</ele>
        <time>2015-06-14T10:40:07.000Z</time>
      </trkpt>
      <trkpt lat="48.70707" lon="1.75448">
        <ele>173</ele>
        <time>2015-06-14T10:40:08.000Z</time>
      </trkpt>
      <trkpt lat="48.70709" lon="1.75448">
        <ele>173</ele>
        <time>2015-06-14T10:40:12.000Z</time>
      </trkpt>
      <trkpt lat="48.70707" lon="1.75445">
        <ele>173</ele>
        <time>2015-06-14T10:40:49.000Z</time>
      </trkpt>
      <trkpt lat="48.707" lon="1.75442">
        <ele>173</ele>
        <time>2015-06-14T10:40:53.000Z</time>
      </trkpt>
      <trkpt lat="48.70698" lon="1.75442">
        <ele>173</ele>
        <time>2015-06-14T10:40:56.000Z</time>
      </trkpt>
    </trkseg>
  </trk>
</gpx>